Observation data for Van Horn on 02/24/2021      Previous  Date  Next       Current Mesonet Observations  Soil Data  Daily Summary Page  Observations in Plain Language
KVA1 240600Z 23008KT 10/M13 A3004 RMK A01 T01031129  RH  018%=      5-min Rain = 0
KVA1 240601Z 23008KT 10/M13 A3004 RMK A01 T01031128  RH  018%=      5-min Rain = 0
KVA1 240602Z 23009KT 10/M13 A3004 RMK A01 T01021128  RH  018%=      5-min Rain = 0
KVA1 240603Z 23009KT 10/M13 A3004 RMK A01 T01021128  RH  018%=      5-min Rain = 0
KVA1 240604Z 23009KT 10/M13 A3004 RMK A01 T01021128  RH  018%=      5-min Rain = 0
KVA1 240605Z 23008KT 10/M13 A3004 RMK A01 T01021128  RH  018%=      5-min Rain = 0
KVA1 240606Z 23009KT 10/M13 A3004 RMK A01 T01031128  RH  018%=      5-min Rain = 0
KVA1 240607Z 23009KT 10/M13 A3004 RMK A01 T01031128  RH  018%=      5-min Rain = 0
KVA1 240608Z 23009KT 10/M13 A3004 RMK A01 T01031128  RH  018%=      5-min Rain = 0
KVA1 240609Z 23009KT 10/M13 A3004 RMK A01 T01041128  RH  018%=      5-min Rain = 0
KVA1 240610Z 24009KT 10/M13 A3004 RMK A01 T01041128  RH  018%=      5-min Rain = 0
KVA1 240611Z 24008KT 11/M13 A3004 RMK A01 T01051127  RH  018%=      5-min Rain = 0
KVA1 240612Z 24008KT 11/M13 A3004 RMK A01 T01061127  RH  018%=      5-min Rain = 0
KVA1 240613Z 24008KT 11/M13 A3004 RMK A01 T01061127  RH  018%=      5-min Rain = 0
KVA1 240614Z 25008KT 11/M13 A3004 RMK A01 T01061127  RH  018%=      5-min Rain = 0
KVA1 240615Z 25007KT 11/M13 A3004 RMK A01 T01051128  RH  018%=      5-min Rain = 0
KVA1 240616Z 25007KT 10/M13 A3004 RMK A01 T01031128  RH  018%=      5-min Rain = 0
KVA1 240617Z 25007KT 10/M13 A3004 RMK A01 T01011127  RH  019%=      5-min Rain = 0
KVA1 240618Z 25008KT 10/M13 A3004 RMK A01 T00991127  RH  019%=      5-min Rain = 0
KVA1 240619Z 25008KT 10/M13 A3004 RMK A01 T00971126  RH  019%=      5-min Rain = 0
KVA1 240620Z 25008KT 10/M13 A3004 RMK A01 T00961126  RH  020%=      5-min Rain = 0
KVA1 240621Z 26008KT 10/M13 A3004 RMK A01 T00951126  RH  020%=      5-min Rain = 0
KVA1 240622Z 26007KT 10/M13 A3004 RMK A01 T00951126  RH  020%=      5-min Rain = 0
KVA1 240623Z 26006KT 10/M13 A3004 RMK A01 T00951126  RH  020%=      5-min Rain = 0
KVA1 240624Z 26005KT 09/M13 A3004 RMK A01 T00941126  RH  020%=      5-min Rain = 0
KVA1 240625Z 26006KT 09/M13 A3004 RMK A01 T00931125  RH  020%=      5-min Rain = 0
KVA1 240626Z 26006KT 09/M12 A3004 RMK A01 T00921124  RH  020%=      5-min Rain = 0
KVA1 240627Z 26007KT 09/M12 A3004 RMK A01 T00911124  RH  021%=      5-min Rain = 0
KVA1 240628Z 26007KT 09/M12 A3004 RMK A01 T00901124  RH  021%=      5-min Rain = 0
KVA1 240629Z 27008KT 09/M13 A3004 RMK A01 T00901125  RH  021%=      5-min Rain = 0
KVA1 240630Z 26007KT 09/M13 A3004 RMK A01 T00911126  RH  020%=      5-min Rain = 0
KVA1 240631Z 27007KT 09/M13 A3004 RMK A01 T00921126  RH  020%=      5-min Rain = 0
KVA1 240632Z 25007KT 09/M13 A3004 RMK A01 T00921126  RH  020%=      5-min Rain = 0
KVA1 240633Z 26007KT 09/M13 A3004 RMK A01 T00921126  RH  020%=      5-min Rain = 0
KVA1 240634Z 27008KT 09/M13 A3004 RMK A01 T00931127  RH  020%=      5-min Rain = 0
KVA1 240635Z 26007KT 09/M13 A3004 RMK A01 T00941127  RH  020%=      5-min Rain = 0
KVA1 240636Z 26008KT 09/M13 A3004 RMK A01 T00941127  RH  020%=      5-min Rain = 0
KVA1 240637Z 27009KT 10/M13 A3004 RMK A01 T00951127  RH  020%=      5-min Rain = 0
KVA1 240638Z 26008KT 10/M13 A3004 RMK A01 T00961128  RH  019%=      5-min Rain = 0
KVA1 240639Z 25007KT 10/M13 A3004 RMK A01 T00981127  RH  019%=      5-min Rain = 0
KVA1 240640Z 26009KT 10/M13 A3004 RMK A01 T00981128  RH  019%=      5-min Rain = 0
KVA1 240641Z 26008KT 10/M13 A3004 RMK A01 T00991129  RH  019%=      5-min Rain = 0
KVA1 240642Z 25007KT 10/M13 A3004 RMK A01 T01011130  RH  018%=      5-min Rain = 0
KVA1 240643Z 25008KT 10/M13 A3004 RMK A01 T01031130  RH  018%=      5-min Rain = 0
KVA1 240644Z 25008KT 11/M13 A3004 RMK A01 T01051131  RH  018%=      5-min Rain = 0
KVA1 240645Z 25008KT 11/M13 A3004 RMK A01 T01061131  RH  017%=      5-min Rain = 0
KVA1 240646Z 24008KT 11/M13 A3004 RMK A01 T01071132  RH  017%=      5-min Rain = 0
KVA1 240647Z 25008KT 11/M13 A3004 RMK A01 T01071133  RH  017%=      5-min Rain = 0
KVA1 240648Z 26007KT 11/M13 A3004 RMK A01 T01081133  RH  017%=      5-min Rain = 0
KVA1 240649Z 25007KT 11/M13 A3004 RMK A01 T01071133  RH  017%=      5-min Rain = 0
KVA1 240650Z 25007KT 11/M13 A3004 RMK A01 T01071133  RH  017%=      5-min Rain = 0
KVA1 240651Z 24006KT 11/M13 A3004 RMK A01 T01061132  RH  017%=      5-min Rain = 0
KVA1 240652Z 25007KT 11/M13 A3004 RMK A01 T01051132  RH  018%=      5-min Rain = 0
KVA1 240653Z 26008KT 10/M13 A3004 RMK A01 T01041132  RH  018%=      5-min Rain = 0
KVA1 240654Z 26008KT 10/M13 A3004 RMK A01 T01041132  RH  018%=      5-min Rain = 0
KVA1 240655Z 26008KT 10/M13 A3004 RMK A01 T01041133  RH  018%=      5-min Rain = 0
KVA1 240656Z 26009KT 11/M13 A3004 RMK A01 T01051133  RH  017%=      5-min Rain = 0
KVA1 240657Z 26009KT 11/M13 A3004 RMK A01 T01061133  RH  017%=      5-min Rain = 0
KVA1 240658Z 25009KT 11/M13 A3004 RMK A01 T01091134  RH  017%=      5-min Rain = 0
KVA1 240659Z 25009KT 11/M13 A3004 RMK A01 T01111134  RH  017%=      5-min Rain = 0
KVA1 240700Z 25009KT 11/M14 A3004 RMK A01 T01131135  RH  016%=      5-min Rain = 0
KVA1 240701Z 25010KT 11/M14 A3004 RMK A01 T01141135  RH  016%=      5-min Rain = 0
KVA1 240702Z 25010KT 12/M14 A3004 RMK A01 T01151135  RH  016%=      5-min Rain = 0
KVA1 240703Z 25010KT 12/M14 A3004 RMK A01 T01161136  RH  016%=      5-min Rain = 0
KVA1 240704Z 26010KT 12/M14 A3004 RMK A01 T01171136  RH  016%=      5-min Rain = 0
KVA1 240705Z 26010KT 12/M14 A3004 RMK A01 T01171137  RH  016%=      5-min Rain = 0
KVA1 240706Z 26010KT 12/M14 A3004 RMK A01 T01181137  RH  015%=      5-min Rain = 0
KVA1 240707Z 26009KT 12/M14 A3004 RMK A01 T01191136  RH  015%=      5-min Rain = 0
KVA1 240708Z 25009KT 12/M14 A3004 RMK A01 T01191137  RH  015%=      5-min Rain = 0
KVA1 240709Z 25009KT 12/M14 A3004 RMK A01 T01201138  RH  015%=      5-min Rain = 0
KVA1 240710Z 25008KT 12/M14 A3004 RMK A01 T01201137  RH  015%=      5-min Rain = 0
KVA1 240711Z 25009KT 12/M14 A3004 RMK A01 T01201137  RH  015%=      5-min Rain = 0
KVA1 240712Z 25008KT 12/M14 A3004 RMK A01 T01191137  RH  015%=      5-min Rain = 0
KVA1 240713Z 25008KT 12/M14 A3004 RMK A01 T01191138  RH  015%=      5-min Rain = 0
KVA1 240714Z 25008KT 12/M14 A3004 RMK A01 T01191139  RH  015%=      5-min Rain = 0
KVA1 240715Z 25008KT 12/M14 A3004 RMK A01 T01191139  RH  015%=      5-min Rain = 0
KVA1 240716Z 25008KT 12/M14 A3004 RMK A01 T01191139  RH  015%=      5-min Rain = 0
KVA1 240717Z 25008KT 12/M14 A3004 RMK A01 T01191139  RH  015%=      5-min Rain = 0
KVA1 240718Z 25008KT 12/M14 A3004 RMK A01 T01191139  RH  015%=      5-min Rain = 0
KVA1 240719Z 25008KT 12/M14 A3004 RMK A01 T01181139  RH  015%=      5-min Rain = 0
KVA1 240720Z 25008KT 12/M14 A3004 RMK A01 T01171139  RH  015%=      5-min Rain = 0
KVA1 240721Z 25008KT 12/M14 A3004 RMK A01 T01161138  RH  015%=      5-min Rain = 0
KVA1 240722Z 25008KT 12/M14 A3004 RMK A01 T01151137  RH  016%=      5-min Rain = 0
KVA1 240723Z 25008KT 11/M14 A3004 RMK A01 T01131137  RH  016%=      5-min Rain = 0
KVA1 240724Z 25008KT 11/M14 A3004 RMK A01 T01121137  RH  016%=      5-min Rain = 0
KVA1 240725Z 25008KT 11/M14 A3004 RMK A01 T01101136  RH  016%=      5-min Rain = 0
KVA1 240726Z 26008KT 11/M14 A3004 RMK A01 T01091136  RH  016%=      5-min Rain = 0
KVA1 240727Z 25008KT 11/M14 A3004 RMK A01 T01091136  RH  017%=      5-min Rain = 0
KVA1 240728Z 26009KT 11/M14 A3004 RMK A01 T01081135  RH  017%=      5-min Rain = 0
KVA1 240729Z 26009KT 11/M13 A3004 RMK A01 T01071134  RH  017%=      5-min Rain = 0
KVA1 240730Z 26008KT 11/M13 A3004 RMK A01 T01061133  RH  017%=      5-min Rain = 0
KVA1 240731Z 25008KT 11/M13 A3004 RMK A01 T01061133  RH  017%=      5-min Rain = 0
KVA1 240732Z 26009KT 10/M13 A3004 RMK A01 T01041132  RH  018%=      5-min Rain = 0
KVA1 240733Z 25009KT 10/M13 A3004 RMK A01 T01041132  RH  018%=      5-min Rain = 0
KVA1 240734Z 25009KT 10/M13 A3004 RMK A01 T01041132  RH  018%=      5-min Rain = 0
KVA1 240735Z 26007KT 10/M13 A3004 RMK A01 T01031132  RH  018%=      5-min Rain = 0
KVA1 240736Z 25007KT 10/M13 A3004 RMK A01 T01021131  RH  018%=      5-min Rain = 0
KVA1 240737Z 25008KT 10/M13 A3004 RMK A01 T01021133  RH  018%=      5-min Rain = 0
KVA1 240738Z 25009KT 11/M13 A3004 RMK A01 T01071134  RH  017%=      5-min Rain = 0
KVA1 240739Z 25008KT 11/M13 A3004 RMK A01 T01121134  RH  016%=      5-min Rain = 0
KVA1 240740Z 25009KT 11/M14 A3004 RMK A01 T01131135  RH  016%=      5-min Rain = 0
KVA1 240741Z 25009KT 12/M14 A3004 RMK A01 T01181137  RH  015%=      5-min Rain = 0
KVA1 240742Z 24007KT 12/M14 A3004 RMK A01 T01241137  RH  015%=      5-min Rain = 0
KVA1 240743Z 24008KT 13/M14 A3004 RMK A01 T01251137  RH  015%=      5-min Rain = 0
KVA1 240744Z 23008KT 12/M14 A3004 RMK A01 T01241136  RH  015%=      5-min Rain = 0
KVA1 240745Z 23009KT 12/M14 A3004 RMK A01 T01171137  RH  016%=      5-min Rain = 0
KVA1 240746Z 23008KT 11/M14 A3004 RMK A01 T01131136  RH  016%=      5-min Rain = 0
KVA1 240747Z 23009KT 11/M14 A3004 RMK A01 T01131137  RH  016%=      5-min Rain = 0
KVA1 240748Z 23009KT 11/M14 A3004 RMK A01 T01141137  RH  016%=      5-min Rain = 0
KVA1 240749Z 23009KT 11/M14 A3004 RMK A01 T01141137  RH  016%=      5-min Rain = 0
KVA1 240750Z 23008KT 11/M14 A3004 RMK A01 T01141138  RH  016%=      5-min Rain = 0
KVA1 240751Z 23009KT 12/M14 A3004 RMK A01 T01181138  RH  015%=      5-min Rain = 0
KVA1 240752Z 23009KT 12/M14 A3004 RMK A01 T01211139  RH  015%=      5-min Rain = 0
KVA1 240753Z 23009KT 13/M14 A3004 RMK A01 T01251139  RH  014%=      5-min Rain = 0
KVA1 240754Z 22009KT 12/M14 A3004 RMK A01 T01231138  RH  015%=      5-min Rain = 0
KVA1 240755Z 22008KT 12/M14 A3004 RMK A01 T01171138  RH  015%=      5-min Rain = 0
KVA1 240756Z 22008KT 11/M14 A3004 RMK A01 T01131138  RH  016%=      5-min Rain = 0
KVA1 240757Z 22008KT 11/M14 A3004 RMK A01 T01111137  RH  016%=      5-min Rain = 0
KVA1 240758Z 22008KT 11/M14 A3004 RMK A01 T01091136  RH  016%=      5-min Rain = 0
KVA1 240759Z 23008KT 11/M14 A3004 RMK A01 T01081135  RH  017%=      5-min Rain = 0
KVA1 240800Z 23008KT 11/M14 A3004 RMK A01 T01061135  RH  017%=      5-min Rain = 0
KVA1 240801Z 22009KT 11/M13 A3004 RMK A01 T01051134  RH  017%=      5-min Rain = 0
KVA1 240802Z 22009KT 10/M13 A3004 RMK A01 T01031134  RH  017%=      5-min Rain = 0
KVA1 240803Z 22009KT 10/M13 A3004 RMK A01 T01021133  RH  018%=      5-min Rain = 0
KVA1 240804Z 22008KT 10/M13 A3004 RMK A01 T00991132  RH  018%=      5-min Rain = 0
KVA1 240805Z 21008KT 10/M13 A3004 RMK A01 T00971130  RH  019%=      5-min Rain = 0
KVA1 240806Z 21008KT 09/M13 A3004 RMK A01 T00941128  RH  019%=      5-min Rain = 0
KVA1 240807Z 21008KT 09/M13 A3004 RMK A01 T00911127  RH  020%=      5-min Rain = 0
KVA1 240808Z 21008KT 09/M13 A3004 RMK A01 T00891126  RH  020%=      5-min Rain = 0
KVA1 240809Z 22009KT 09/M13 A3004 RMK A01 T00871125  RH  021%=      5-min Rain = 0
KVA1 240810Z 21009KT 09/M12 A3004 RMK A01 T00851124  RH  021%=      5-min Rain = 0
KVA1 240811Z 21009KT 08/M12 A3004 RMK A01 T00841123  RH  022%=      5-min Rain = 0
KVA1 240812Z 22008KT 08/M12 A3004 RMK A01 T00841123  RH  022%=      5-min Rain = 0
KVA1 240813Z 22009KT 08/M12 A3004 RMK A01 T00821123  RH  022%=      5-min Rain = 0
KVA1 240814Z 22009KT 08/M12 A3004 RMK A01 T00811122  RH  022%=      5-min Rain = 0
KVA1 240815Z 21009KT 08/M12 A3004 RMK A01 T00801122  RH  023%=      5-min Rain = 0
KVA1 240816Z 22009KT 08/M12 A3005 RMK A01 T00791121  RH  023%=      5-min Rain = 0
KVA1 240817Z 22009KT 08/M12 A3005 RMK A01 T00781121  RH  023%=      5-min Rain = 0
KVA1 240818Z 21009KT 08/M12 A3005 RMK A01 T00761120  RH  023%=      5-min Rain = 0
KVA1 240819Z 22009KT 08/M12 A3005 RMK A01 T00751120  RH  024%=      5-min Rain = 0
KVA1 240820Z 21010KT 08/M12 A3005 RMK A01 T00751119  RH  024%=      5-min Rain = 0
KVA1 240821Z 22009KT 08/M12 A3005 RMK A01 T00751118  RH  024%=      5-min Rain = 0
KVA1 240822Z 22009KT 08/M12 A3005 RMK A01 T00751117  RH  024%=      5-min Rain = 0
KVA1 240823Z 21009KT 08/M12 A3004 RMK A01 T00761116  RH  024%=      5-min Rain = 0
KVA1 240824Z 22010KT 08/M12 A3005 RMK A01 T00761115  RH  024%=      5-min Rain = 0
KVA1 240825Z 22008KT 08/M12 A3004 RMK A01 T00761115  RH  024%=      5-min Rain = 0
KVA1 240826Z 22009KT 08/M11 A3004 RMK A01 T00761114  RH  025%=      5-min Rain = 0
KVA1 240827Z 22009KT 08/M11 A3004 RMK A01 T00761114  RH  025%=      5-min Rain = 0
KVA1 240828Z 23008KT 08/M11 A3004 RMK A01 T00771113  RH  025%=      5-min Rain = 0
KVA1 240829Z 22009KT 08/M11 A3004 RMK A01 T00761114  RH  025%=      5-min Rain = 0
KVA1 240830Z 22009KT 08/M11 A3004 RMK A01 T00771113  RH  025%=      5-min Rain = 0
KVA1 240831Z 23009KT 08/M11 A3004 RMK A01 T00771113  RH  025%=      5-min Rain = 0
KVA1 240832Z 22009KT 08/M11 A3004 RMK A01 T00771113  RH  025%=      5-min Rain = 0
KVA1 240833Z 22010KT 08/M11 A3004 RMK A01 T00771112  RH  025%=      5-min Rain = 0
KVA1 240834Z 22009KT 08/M11 A3004 RMK A01 T00771113  RH  025%=      5-min Rain = 0
KVA1 240835Z 23009KT 08/M11 A3005 RMK A01 T00781113  RH  025%=      5-min Rain = 0
KVA1 240836Z 22011KT 08/M11 A3005 RMK A01 T00771113  RH  025%=      5-min Rain = 0
KVA1 240837Z 23010KT 08/M11 A3005 RMK A01 T00771113  RH  025%=      5-min Rain = 0
KVA1 240838Z 22010KT 08/M11 A3004 RMK A01 T00771114  RH  024%=      5-min Rain = 0
KVA1 240839Z 22010KT 08/M11 A3004 RMK A01 T00771114  RH  024%=      5-min Rain = 0
KVA1 240840Z 22010KT 08/M11 A3004 RMK A01 T00781113  RH  024%=      5-min Rain = 0
KVA1 240841Z 22011KT 08/M11 A3004 RMK A01 T00781112  RH  024%=      5-min Rain = 0
KVA1 240842Z 22009KT 08/M11 A3004 RMK A01 T00791112  RH  025%=      5-min Rain = 0
KVA1 240843Z 22010KT 08/M11 A3004 RMK A01 T00781112  RH  025%=      5-min Rain = 0
KVA1 240844Z 22009KT 08/M11 A3004 RMK A01 T00791112  RH  025%=      5-min Rain = 0
KVA1 240845Z 23008KT 08/M11 A3004 RMK A01 T00791112  RH  025%=      5-min Rain = 0
KVA1 240846Z 23008KT 08/M11 A3004 RMK A01 T00781111  RH  025%=      5-min Rain = 0
KVA1 240847Z 23007KT 08/M11 A3004 RMK A01 T00771110  RH  025%=      5-min Rain = 0
KVA1 240848Z 23007KT 08/M11 A3004 RMK A01 T00761111  RH  025%=      5-min Rain = 0
KVA1 240849Z 23008KT 08/M11 A3005 RMK A01 T00761111  RH  025%=      5-min Rain = 0
KVA1 240850Z 23009KT 08/M11 A3004 RMK A01 T00761111  RH  025%=      5-min Rain = 0
KVA1 240851Z 22008KT 08/M11 A3004 RMK A01 T00761111  RH  025%=      5-min Rain = 0
KVA1 240852Z 22008KT 08/M11 A3004 RMK A01 T00761112  RH  025%=      5-min Rain = 0
KVA1 240853Z 23007KT 08/M11 A3004 RMK A01 T00771112  RH  025%=      5-min Rain = 0
KVA1 240854Z 23008KT 08/M11 A3004 RMK A01 T00771112  RH  025%=      5-min Rain = 0
KVA1 240855Z 22009KT 08/M11 A3004 RMK A01 T00771112  RH  025%=      5-min Rain = 0
KVA1 240856Z 23009KT 08/M11 A3004 RMK A01 T00781112  RH  025%=      5-min Rain = 0
KVA1 240857Z 23009KT 08/M11 A3004 RMK A01 T00791113  RH  024%=      5-min Rain = 0
KVA1 240858Z 23009KT 08/M11 A3004 RMK A01 T00791113  RH  024%=      5-min Rain = 0
KVA1 240859Z 22010KT 08/M11 A3004 RMK A01 T00791113  RH  024%=      5-min Rain = 0
KVA1 240900Z 22009KT 08/M11 A3004 RMK A01 T00811113  RH  024%=      5-min Rain = 0
KVA1 240901Z 23009KT 08/M11 A3004 RMK A01 T00821113  RH  024%=      5-min Rain = 0
KVA1 240902Z 23009KT 08/M11 A3004 RMK A01 T00821114  RH  024%=      5-min Rain = 0
KVA1 240903Z 22009KT 08/M12 A3004 RMK A01 T00821115  RH  024%=      5-min Rain = 0
KVA1 240904Z 23010KT 08/M12 A3004 RMK A01 T00821115  RH  023%=      5-min Rain = 0
KVA1 240905Z 23009KT 08/M12 A3004 RMK A01 T00841116  RH  023%=      5-min Rain = 0
KVA1 240906Z 23009KT 08/M12 A3004 RMK A01 T00841115  RH  023%=      5-min Rain = 0
KVA1 240907Z 23008KT 08/M12 A3004 RMK A01 T00841116  RH  023%=      5-min Rain = 0
KVA1 240908Z 23008KT 08/M12 A3004 RMK A01 T00831116  RH  023%=      5-min Rain = 0
KVA1 240909Z 23008KT 08/M12 A3004 RMK A01 T00821116  RH  023%=      5-min Rain = 0
KVA1 240910Z 23007KT 08/M12 A3004 RMK A01 T00811116  RH  023%=      5-min Rain = 0
KVA1 240911Z 23008KT 08/M12 A3004 RMK A01 T00811115  RH  024%=      5-min Rain = 0
KVA1 240912Z 23008KT 08/M12 A3004 RMK A01 T00801116  RH  024%=      5-min Rain = 0
KVA1 240913Z 23008KT 08/M12 A3004 RMK A01 T00801116  RH  024%=      5-min Rain = 0
KVA1 240914Z 23008KT 08/M12 A3004 RMK A01 T00801116  RH  024%=      5-min Rain = 0
KVA1 240915Z 23008KT 08/M12 A3004 RMK A01 T00801117  RH  023%=      5-min Rain = 0
KVA1 240916Z 23007KT 08/M12 A3004 RMK A01 T00801117  RH  023%=      5-min Rain = 0
KVA1 240917Z 23008KT 08/M12 A3004 RMK A01 T00801117  RH  023%=      5-min Rain = 0
KVA1 240918Z 23008KT 08/M12 A3004 RMK A01 T00791117  RH  023%=      5-min Rain = 0
KVA1 240919Z 23007KT 08/M12 A3004 RMK A01 T00791117  RH  024%=      5-min Rain = 0
KVA1 240920Z 23008KT 08/M12 A3004 RMK A01 T00781116  RH  024%=      5-min Rain = 0
KVA1 240921Z 23008KT 08/M12 A3004 RMK A01 T00781117  RH  024%=      5-min Rain = 0
KVA1 240922Z 22009KT 08/M12 A3004 RMK A01 T00781117  RH  024%=      5-min Rain = 0
KVA1 240923Z 23008KT 08/M12 A3004 RMK A01 T00781117  RH  024%=      5-min Rain = 0
KVA1 240924Z 23008KT 08/M12 A3004 RMK A01 T00781118  RH  023%=      5-min Rain = 0
KVA1 240925Z 23008KT 08/M12 A3004 RMK A01 T00791118  RH  023%=      5-min Rain = 0
KVA1 240926Z 22008KT 08/M12 A3004 RMK A01 T00791117  RH  023%=      5-min Rain = 0
KVA1 240927Z 22009KT 08/M12 A3004 RMK A01 T00791118  RH  023%=      5-min Rain = 0
KVA1 240928Z 22009KT 08/M12 A3004 RMK A01 T00781118  RH  023%=      5-min Rain = 0
KVA1 240929Z 22010KT 08/M12 A3004 RMK A01 T00791119  RH  023%=      5-min Rain = 0
KVA1 240930Z 22009KT 08/M12 A3004 RMK A01 T00791119  RH  023%=      5-min Rain = 0
KVA1 240931Z 22009KT 08/M12 A3004 RMK A01 T00781119  RH  023%=      5-min Rain = 0
KVA1 240932Z 22009KT 08/M12 A3004 RMK A01 T00781119  RH  023%=      5-min Rain = 0
KVA1 240933Z 22009KT 08/M12 A3004 RMK A01 T00781119  RH  023%=      5-min Rain = 0
KVA1 240934Z 22009KT 08/M12 A3004 RMK A01 T00771119  RH  023%=      5-min Rain = 0
KVA1 240935Z 22009KT 08/M12 A3004 RMK A01 T00771119  RH  023%=      5-min Rain = 0
KVA1 240936Z 22008KT 08/M12 A3004 RMK A01 T00771119  RH  023%=      5-min Rain = 0
KVA1 240937Z 22008KT 08/M12 A3004 RMK A01 T00771119  RH  024%=      5-min Rain = 0
KVA1 240938Z 22009KT 08/M12 A3004 RMK A01 T00771119  RH  024%=      5-min Rain = 0
KVA1 240939Z 22009KT 08/M12 A3005 RMK A01 T00771119  RH  023%=      5-min Rain = 0
KVA1 240940Z 23010KT 08/M12 A3005 RMK A01 T00781120  RH  023%=      5-min Rain = 0
KVA1 240941Z 23009KT 08/M12 A3005 RMK A01 T00781121  RH  023%=      5-min Rain = 0
KVA1 240942Z 23008KT 08/M12 A3005 RMK A01 T00791121  RH  023%=      5-min Rain = 0
KVA1 240943Z 22009KT 08/M12 A3005 RMK A01 T00791121  RH  023%=      5-min Rain = 0
KVA1 240944Z 22008KT 08/M12 A3005 RMK A01 T00791121  RH  023%=      5-min Rain = 0
KVA1 240945Z 23008KT 08/M12 A3005 RMK A01 T00791120  RH  023%=      5-min Rain = 0
KVA1 240946Z 22008KT 08/M12 A3005 RMK A01 T00781120  RH  023%=      5-min Rain = 0
KVA1 240947Z 21007KT 08/M12 A3005 RMK A01 T00761120  RH  023%=      5-min Rain = 0
KVA1 240948Z 23007KT 08/M12 A3005 RMK A01 T00751120  RH  024%=      5-min Rain = 0
KVA1 240949Z 23006KT 07/M12 A3005 RMK A01 T00741119  RH  024%=      5-min Rain = 0
KVA1 240950Z 23007KT 07/M12 A3005 RMK A01 T00731119  RH  024%=      5-min Rain = 0
KVA1 240951Z 23008KT 07/M12 A3005 RMK A01 T00731119  RH  024%=      5-min Rain = 0
KVA1 240952Z 23006KT 07/M12 A3005 RMK A01 T00731118  RH  024%=      5-min Rain = 0
KVA1 240953Z 23008KT 07/M12 A3005 RMK A01 T00731117  RH  024%=      5-min Rain = 0
KVA1 240954Z 23007KT 07/M12 A3005 RMK A01 T00731116  RH  025%=      5-min Rain = 0
KVA1 240955Z 23007KT 07/M12 A3004 RMK A01 T00731115  RH  025%=      5-min Rain = 0
KVA1 240956Z 23007KT 07/M11 A3005 RMK A01 T00731114  RH  025%=      5-min Rain = 0
KVA1 240957Z 23008KT 07/M11 A3005 RMK A01 T00721114  RH  025%=      5-min Rain = 0
KVA1 240958Z 22008KT 07/M11 A3005 RMK A01 T00721112  RH  026%=      5-min Rain = 0
KVA1 240959Z 23007KT 07/M11 A3005 RMK A01 T00721112  RH  026%=      5-min Rain = 0
KVA1 241000Z 22008KT 07/M11 A3005 RMK A01 T00711111  RH  026%=      5-min Rain = 0
KVA1 241001Z 22008KT 07/M11 A3004 RMK A01 T00711108  RH  027%=      5-min Rain = 0
KVA1 241002Z 23008KT 07/M11 A3005 RMK A01 T00701107  RH  027%=      5-min Rain = 0
KVA1 241003Z 23007KT 07/M11 A3005 RMK A01 T00701106  RH  027%=      5-min Rain = 0
KVA1 241004Z 23006KT 07/M11 A3005 RMK A01 T00701105  RH  028%=      5-min Rain = 0
KVA1 241005Z 23007KT 07/M11 A3005 RMK A01 T00691105  RH  028%=      5-min Rain = 0
KVA1 241006Z 23007KT 07/M11 A3005 RMK A01 T00691105  RH  028%=      5-min Rain = 0
KVA1 241007Z 23007KT 07/M11 A3004 RMK A01 T00681105  RH  028%=      5-min Rain = 0
KVA1 241008Z 22007KT 07/M11 A3005 RMK A01 T00681106  RH  028%=      5-min Rain = 0
KVA1 241009Z 22007KT 07/M11 A3005 RMK A01 T00681105  RH  028%=      5-min Rain = 0
KVA1 241010Z 23007KT 07/M11 A3005 RMK A01 T00671105  RH  028%=      5-min Rain = 0
KVA1 241011Z 23005KT 07/M11 A3005 RMK A01 T00661105  RH  028%=      5-min Rain = 0
KVA1 241012Z 23007KT 07/M11 A3005 RMK A01 T00651105  RH  028%=      5-min Rain = 0
KVA1 241013Z 23007KT 06/M11 A3005 RMK A01 T00641106  RH  028%=      5-min Rain = 0
KVA1 241014Z 23007KT 06/M11 A3005 RMK A01 T00641106  RH  028%=      5-min Rain = 0
KVA1 241015Z 23008KT 06/M11 A3005 RMK A01 T00641107  RH  028%=      5-min Rain = 0
KVA1 241016Z 23009KT 06/M11 A3005 RMK A01 T00641107  RH  028%=      5-min Rain = 0
KVA1 241017Z 23009KT 06/M11 A3005 RMK A01 T00631110  RH  028%=      5-min Rain = 0
KVA1 241018Z 22009KT 06/M11 A3005 RMK A01 T00641110  RH  028%=      5-min Rain = 0
KVA1 241019Z 23008KT 06/M11 A3005 RMK A01 T00641110  RH  028%=      5-min Rain = 0
KVA1 241020Z 22008KT 06/M11 A3005 RMK A01 T00631110  RH  028%=      5-min Rain = 0
KVA1 241021Z 22009KT 06/M11 A3005 RMK A01 T00621110  RH  028%=      5-min Rain = 0
KVA1 241022Z 22009KT 06/M11 A3005 RMK A01 T00621111  RH  028%=      5-min Rain = 0
KVA1 241023Z 23010KT 06/M11 A3005 RMK A01 T00631113  RH  027%=      5-min Rain = 0
KVA1 241024Z 22010KT 07/M11 A3005 RMK A01 T00651114  RH  027%=      5-min Rain = 0
KVA1 241025Z 22010KT 07/M11 A3005 RMK A01 T00651114  RH  026%=      5-min Rain = 0
KVA1 241026Z 22010KT 07/M12 A3005 RMK A01 T00661115  RH  026%=      5-min Rain = 0
KVA1 241027Z 22010KT 07/M12 A3005 RMK A01 T00671115  RH  026%=      5-min Rain = 0
KVA1 241028Z 22011KT 07/M12 A3005 RMK A01 T00671115  RH  026%=      5-min Rain = 0
KVA1 241029Z 22010KT 07/M12 A3005 RMK A01 T00681116  RH  026%=      5-min Rain = 0
KVA1 241030Z 22010KT 07/M12 A3005 RMK A01 T00691117  RH  025%=      5-min Rain = 0
KVA1 241031Z 22010KT 07/M12 A3005 RMK A01 T00691117  RH  025%=      5-min Rain = 0
KVA1 241032Z 22010KT 07/M12 A3005 RMK A01 T00691116  RH  025%=      5-min Rain = 0
KVA1 241033Z 22010KT 07/M12 A3005 RMK A01 T00681116  RH  026%=      5-min Rain = 0
KVA1 241034Z 22010KT 07/M12 A3005 RMK A01 T00681115  RH  026%=      5-min Rain = 0
KVA1 241035Z 22010KT 07/M12 A3005 RMK A01 T00671115  RH  026%=      5-min Rain = 0
KVA1 241036Z 22010KT 07/M12 A3005 RMK A01 T00671115  RH  026%=      5-min Rain = 0
KVA1 241037Z 22010KT 07/M12 A3005 RMK A01 T00661115  RH  026%=      5-min Rain = 0
KVA1 241038Z 22011KT 07/M12 A3005 RMK A01 T00651115  RH  026%=      5-min Rain = 0
KVA1 241039Z 22011KT 07/M12 A3005 RMK A01 T00651115  RH  026%=      5-min Rain = 0
KVA1 241040Z 22010KT 07/M12 A3005 RMK A01 T00651116  RH  026%=      5-min Rain = 0
KVA1 241041Z 22010KT 07/M12 A3005 RMK A01 T00661116  RH  026%=      5-min Rain = 0
KVA1 241042Z 22009KT 07/M12 A3005 RMK A01 T00671117  RH  026%=      5-min Rain = 0
KVA1 241043Z 22008KT 07/M12 A3005 RMK A01 T00681116  RH  026%=      5-min Rain = 0
KVA1 241044Z 22009KT 07/M12 A3005 RMK A01 T00661116  RH  026%=      5-min Rain = 0
KVA1 241045Z 22010KT 07/M12 A3005 RMK A01 T00651116  RH  026%=      5-min Rain = 0
KVA1 241046Z 22010KT 07/M12 A3005 RMK A01 T00661116  RH  026%=      5-min Rain = 0
KVA1 241047Z 22010KT 07/M12 A3005 RMK A01 T00671117  RH  026%=      5-min Rain = 0
KVA1 241048Z 23010KT 07/M12 A3005 RMK A01 T00681118  RH  025%=      5-min Rain = 0
KVA1 241049Z 23009KT 07/M12 A3005 RMK A01 T00711119  RH  024%=      5-min Rain = 0
KVA1 241050Z 23009KT 07/M12 A3005 RMK A01 T00741119  RH  024%=      5-min Rain = 0
KVA1 241051Z 22008KT 07/M12 A3005 RMK A01 T00741120  RH  024%=      5-min Rain = 0
KVA1 241052Z 22008KT 07/M12 A3005 RMK A01 T00711118  RH  025%=      5-min Rain = 0
KVA1 241053Z 22009KT 07/M12 A3005 RMK A01 T00651117  RH  026%=      5-min Rain = 0
KVA1 241054Z 22009KT 06/M12 A3005 RMK A01 T00611116  RH  027%=      5-min Rain = 0
KVA1 241055Z 21009KT 06/M11 A3005 RMK A01 T00581114  RH  028%=      5-min Rain = 0
KVA1 241056Z 22008KT 06/M11 A3005 RMK A01 T00561112  RH  029%=      5-min Rain = 0
KVA1 241057Z 22010KT 06/M11 A3005 RMK A01 T00551112  RH  029%=      5-min Rain = 0
KVA1 241058Z 21009KT 06/M11 A3006 RMK A01 T00561113  RH  028%=      5-min Rain = 0
KVA1 241059Z 21009KT 06/M11 A3006 RMK A01 T00581113  RH  028%=      5-min Rain = 0
KVA1 241100Z 21009KT 06/M11 A3006 RMK A01 T00571111  RH  029%=      5-min Rain = 0
KVA1 241101Z 21008KT 06/M11 A3006 RMK A01 T00561109  RH  029%=      5-min Rain = 0
KVA1 241102Z 21008KT 06/M11 A3006 RMK A01 T00551108  RH  030%=      5-min Rain = 0
KVA1 241103Z 21008KT 05/M11 A3006 RMK A01 T00541107  RH  030%=      5-min Rain = 0
KVA1 241104Z 22008KT 05/M11 A3006 RMK A01 T00531107  RH  031%=      5-min Rain = 0
KVA1 241105Z 21008KT 05/M11 A3006 RMK A01 T00521107  RH  031%=      5-min Rain = 0
KVA1 241106Z 21008KT 05/M11 A3006 RMK A01 T00521107  RH  031%=      5-min Rain = 0
KVA1 241107Z 21008KT 05/M11 A3006 RMK A01 T00521107  RH  031%=      5-min Rain = 0
KVA1 241108Z 22008KT 05/M11 A3006 RMK A01 T00521107  RH  031%=      5-min Rain = 0
KVA1 241109Z 21008KT 05/M11 A3006 RMK A01 T00521107  RH  031%=      5-min Rain = 0
KVA1 241110Z 22008KT 05/M11 A3006 RMK A01 T00531108  RH  030%=      5-min Rain = 0
KVA1 241111Z 22008KT 05/M11 A3006 RMK A01 T00531108  RH  030%=      5-min Rain = 0
KVA1 241112Z 22009KT 05/M11 A3006 RMK A01 T00531109  RH  030%=      5-min Rain = 0
KVA1 241113Z 22009KT 05/M11 A3006 RMK A01 T00541109  RH  030%=      5-min Rain = 0
KVA1 241114Z 22009KT 06/M11 A3006 RMK A01 T00551109  RH  030%=      5-min Rain = 0
KVA1 241115Z 22009KT 06/M11 A3006 RMK A01 T00551110  RH  029%=      5-min Rain = 0
KVA1 241116Z 22009KT 06/M11 A3006 RMK A01 T00551111  RH  029%=      5-min Rain = 0
KVA1 241117Z 22009KT 06/M11 A3006 RMK A01 T00561112  RH  029%=      5-min Rain = 0
KVA1 241118Z 22009KT 06/M11 A3006 RMK A01 T00571113  RH  028%=      5-min Rain = 0
KVA1 241119Z 22010KT 06/M11 A3006 RMK A01 T00581114  RH  028%=      5-min Rain = 0
KVA1 241120Z 22010KT 06/M12 A3006 RMK A01 T00591115  RH  027%=      5-min Rain = 0
KVA1 241121Z 22011KT 06/M12 A3007 RMK A01 T00611115  RH  027%=      5-min Rain = 0
KVA1 241122Z 22010KT 06/M12 A3007 RMK A01 T00621116  RH  027%=      5-min Rain = 0
KVA1 241123Z 22009KT 06/M12 A3007 RMK A01 T00631117  RH  026%=      5-min Rain = 0
KVA1 241124Z 22009KT 06/M12 A3007 RMK A01 T00641117  RH  026%=      5-min Rain = 0
KVA1 241125Z 22009KT 06/M12 A3007 RMK A01 T00641118  RH  026%=      5-min Rain = 0
KVA1 241126Z 22010KT 06/M12 A3007 RMK A01 T00641118  RH  026%=      5-min Rain = 0
KVA1 241127Z 22009KT 06/M12 A3007 RMK A01 T00641118  RH  026%=      5-min Rain = 0
KVA1 241128Z 23008KT 06/M12 A3007 RMK A01 T00641118  RH  026%=      5-min Rain = 0
KVA1 241129Z 23008KT 06/M12 A3007 RMK A01 T00641118  RH  026%=      5-min Rain = 0
KVA1 241130Z 23008KT 06/M12 A3007 RMK A01 T00641118  RH  026%=      5-min Rain = 0
KVA1 241131Z 23008KT 06/M12 A3007 RMK A01 T00641117  RH  026%=      5-min Rain = 0
KVA1 241132Z 23009KT 06/M12 A3007 RMK A01 T00631117  RH  026%=      5-min Rain = 0
KVA1 241133Z 23008KT 06/M12 A3007 RMK A01 T00631117  RH  026%=      5-min Rain = 0
KVA1 241134Z 23008KT 06/M12 A3007 RMK A01 T00641117  RH  026%=      5-min Rain = 0
KVA1 241135Z 24008KT 06/M12 A3007 RMK A01 T00641116  RH  026%=      5-min Rain = 0
KVA1 241136Z 24008KT 06/M12 A3007 RMK A01 T00641115  RH  027%=      5-min Rain = 0
KVA1 241137Z 24008KT 06/M11 A3007 RMK A01 T00631114  RH  027%=      5-min Rain = 0
KVA1 241138Z 24008KT 06/M11 A3007 RMK A01 T00631113  RH  027%=      5-min Rain = 0
KVA1 241139Z 24008KT 06/M11 A3007 RMK A01 T00631113  RH  027%=      5-min Rain = 0
KVA1 241140Z 23008KT 06/M11 A3007 RMK A01 T00631113  RH  027%=      5-min Rain = 0
KVA1 241141Z 23008KT 06/M11 A3007 RMK A01 T00641112  RH  027%=      5-min Rain = 0
KVA1 241142Z 23008KT 07/M11 A3007 RMK A01 T00651113  RH  027%=      5-min Rain = 0
KVA1 241143Z 23008KT 07/M12 A3007 RMK A01 T00651115  RH  026%=      5-min Rain = 0
KVA1 241144Z 23008KT 07/M12 A3007 RMK A01 T00661116  RH  026%=      5-min Rain = 0
KVA1 241145Z 23007KT 07/M12 A3007 RMK A01 T00661116  RH  026%=      5-min Rain = 0
KVA1 241146Z 23008KT 07/M12 A3007 RMK A01 T00651116  RH  026%=      5-min Rain = 0
KVA1 241147Z 24008KT 06/M12 A3007 RMK A01 T00641116  RH  026%=      5-min Rain = 0
KVA1 241148Z 23008KT 06/M12 A3007 RMK A01 T00631116  RH  027%=      5-min Rain = 0
KVA1 241149Z 23008KT 06/M12 A3007 RMK A01 T00631115  RH  027%=      5-min Rain = 0
KVA1 241150Z 23009KT 06/M11 A3007 RMK A01 T00631113  RH  027%=      5-min Rain = 0
KVA1 241151Z 23008KT 06/M11 A3008 RMK A01 T00641113  RH  027%=      5-min Rain = 0
KVA1 241152Z 23008KT 06/M12 A3008 RMK A01 T00641115  RH  027%=      5-min Rain = 0
KVA1 241153Z 23008KT 06/M12 A3008 RMK A01 T00641116  RH  026%=      5-min Rain = 0
KVA1 241154Z 23008KT 06/M12 A3008 RMK A01 T00631115  RH  027%=      5-min Rain = 0
KVA1 241155Z 23008KT 06/M11 A3008 RMK A01 T00631114  RH  027%=      5-min Rain = 0
KVA1 241156Z 23007KT 06/M11 A3008 RMK A01 T00621113  RH  027%=      5-min Rain = 0
KVA1 241157Z 23007KT 06/M11 A3008 RMK A01 T00621112  RH  028%=      5-min Rain = 0
KVA1 241158Z 23008KT 06/M11 A3008 RMK A01 T00611111  RH  028%=      5-min Rain = 0
KVA1 241159Z 22008KT 06/M11 A3008 RMK A01 T00611110  RH  028%=      5-min Rain = 0
KVA1 241200Z 23008KT 06/M11 A3008 RMK A01 T00611109  RH  028%=      5-min Rain = 0
KVA1 241201Z 23008KT 06/M11 A3008 RMK A01 T00611108  RH  028%=      5-min Rain = 0
KVA1 241202Z 23008KT 06/M11 A3008 RMK A01 T00611109  RH  028%=      5-min Rain = 0
KVA1 241203Z 23008KT 06/M11 A3008 RMK A01 T00601109  RH  028%=      5-min Rain = 0
KVA1 241204Z 23007KT 06/M11 A3008 RMK A01 T00601109  RH  029%=      5-min Rain = 0
KVA1 241205Z 23008KT 06/M11 A3008 RMK A01 T00591108  RH  029%=      5-min Rain = 0
KVA1 241206Z 23008KT 06/M11 A3008 RMK A01 T00581106  RH  030%=      5-min Rain = 0
KVA1 241207Z 23008KT 06/M11 A3008 RMK A01 T00581105  RH  030%=      5-min Rain = 0
KVA1 241208Z 23009KT 06/M10 A3008 RMK A01 T00581103  RH  030%=      5-min Rain = 0
KVA1 241209Z 23009KT 06/M10 A3008 RMK A01 T00571102  RH  031%=      5-min Rain = 0
KVA1 241210Z 22010KT 06/M10 A3008 RMK A01 T00571101  RH  031%=      5-min Rain = 0
KVA1 241211Z 22010KT 06/M10 A3008 RMK A01 T00581100  RH  031%=      5-min Rain = 0
KVA1 241212Z 23010KT 06/M10 A3008 RMK A01 T00571100  RH  031%=      5-min Rain = 0
KVA1 241213Z 22010KT 06/M10 A3008 RMK A01 T00581099  RH  031%=      5-min Rain = 0
KVA1 241214Z 23008KT 06/M10 A3008 RMK A01 T00591097  RH  032%=      5-min Rain = 0
KVA1 241215Z 23009KT 06/M10 A3008 RMK A01 T00581098  RH  032%=      5-min Rain = 0
KVA1 241216Z 23009KT 06/M10 A3008 RMK A01 T00581098  RH  032%=      5-min Rain = 0
KVA1 241217Z 23009KT 06/M10 A3008 RMK A01 T00571098  RH  032%=      5-min Rain = 0
KVA1 241218Z 23009KT 06/M10 A3008 RMK A01 T00561097  RH  032%=      5-min Rain = 0
KVA1 241219Z 22009KT 06/M10 A3008 RMK A01 T00551097  RH  032%=      5-min Rain = 0
KVA1 241220Z 23009KT 06/M10 A3008 RMK A01 T00551096  RH  033%=      5-min Rain = 0
KVA1 241221Z 23009KT 05/M10 A3008 RMK A01 T00541096  RH  033%=      5-min Rain = 0
KVA1 241222Z 22009KT 05/M10 A3008 RMK A01 T00541095  RH  033%=      5-min Rain = 0
KVA1 241223Z 23009KT 05/M10 A3008 RMK A01 T00531095  RH  033%=      5-min Rain = 0
KVA1 241224Z 23008KT 05/M10 A3008 RMK A01 T00531095  RH  033%=      5-min Rain = 0
KVA1 241225Z 23009KT 05/M10 A3008 RMK A01 T00531096  RH  033%=      5-min Rain = 0
KVA1 241226Z 23009KT 05/M10 A3008 RMK A01 T00521097  RH  033%=      5-min Rain = 0
KVA1 241227Z 22009KT 05/M10 A3008 RMK A01 T00511097  RH  033%=      5-min Rain = 0
KVA1 241228Z 23009KT 05/M10 A3008 RMK A01 T00511097  RH  033%=      5-min Rain = 0
KVA1 241229Z 23009KT 05/M10 A3008 RMK A01 T00511097  RH  033%=      5-min Rain = 0
KVA1 241230Z 23009KT 05/M10 A3008 RMK A01 T00521097  RH  033%=      5-min Rain = 0
KVA1 241231Z 23009KT 05/M10 A3008 RMK A01 T00521098  RH  033%=      5-min Rain = 0
KVA1 241232Z 23010KT 05/M10 A3008 RMK A01 T00521099  RH  033%=      5-min Rain = 0
KVA1 241233Z 23009KT 05/M10 A3009 RMK A01 T00531100  RH  032%=      5-min Rain = 0
KVA1 241234Z 23009KT 05/M10 A3009 RMK A01 T00531101  RH  032%=      5-min Rain = 0
KVA1 241235Z 23009KT 05/M10 A3009 RMK A01 T00531104  RH  031%=      5-min Rain = 0
KVA1 241236Z 23010KT 05/M11 A3009 RMK A01 T00541107  RH  030%=      5-min Rain = 0
KVA1 241237Z 23010KT 06/M11 A3009 RMK A01 T00551108  RH  030%=      5-min Rain = 0
KVA1 241238Z 23010KT 06/M11 A3009 RMK A01 T00561110  RH  029%=      5-min Rain = 0
KVA1 241239Z 23010KT 06/M11 A3009 RMK A01 T00571112  RH  028%=      5-min Rain = 0
KVA1 241240Z 23010KT 06/M11 A3009 RMK A01 T00581114  RH  028%=      5-min Rain = 0
KVA1 241241Z 23010KT 06/M12 A3009 RMK A01 T00591115  RH  028%=      5-min Rain = 0
KVA1 241242Z 23010KT 06/M12 A3009 RMK A01 T00591116  RH  027%=      5-min Rain = 0
KVA1 241243Z 23010KT 06/M12 A3009 RMK A01 T00601116  RH  027%=      5-min Rain = 0
KVA1 241244Z 23010KT 06/M12 A3009 RMK A01 T00611117  RH  027%=      5-min Rain = 0
KVA1 241245Z 23010KT 06/M12 A3009 RMK A01 T00621117  RH  026%=      5-min Rain = 0
KVA1 241246Z 23011KT 06/M12 A3009 RMK A01 T00631118  RH  026%=      5-min Rain = 0
KVA1 241247Z 22011KT 06/M12 A3009 RMK A01 T00641119  RH  026%=      5-min Rain = 0
KVA1 241248Z 23011KT 07/M12 A3009 RMK A01 T00651118  RH  026%=      5-min Rain = 0
KVA1 241249Z 22011KT 07/M12 A3009 RMK A01 T00651119  RH  026%=      5-min Rain = 0
KVA1 241250Z 22011KT 07/M12 A3009 RMK A01 T00661119  RH  025%=      5-min Rain = 0
KVA1 241251Z 23011KT 07/M12 A3009 RMK A01 T00681120  RH  025%=      5-min Rain = 0
KVA1 241252Z 23011KT 07/M12 A3009 RMK A01 T00691120  RH  025%=      5-min Rain = 0
KVA1 241253Z 23011KT 07/M12 A3009 RMK A01 T00691120  RH  025%=      5-min Rain = 0
KVA1 241254Z 22010KT 07/M12 A3009 RMK A01 T00691120  RH  024%=      5-min Rain = 0
KVA1 241255Z 23010KT 07/M12 A301 RMK A01 T00691121  RH  024%=      5-min Rain = 0
KVA1 241256Z 22010KT 07/M12 A3009 RMK A01 T00691121  RH  024%=      5-min Rain = 0
KVA1 241257Z 23010KT 07/M12 A301 RMK A01 T00701122  RH  024%=      5-min Rain = 0
KVA1 241258Z 23010KT 07/M12 A301 RMK A01 T00701122  RH  024%=      5-min Rain = 0
KVA1 241259Z 23010KT 07/M12 A301 RMK A01 T00711122  RH  024%=      5-min Rain = 0
KVA1 241300Z 22010KT 07/M12 A301 RMK A01 T00711122  RH  024%=      5-min Rain = 0
KVA1 241301Z 23010KT 07/M12 A301 RMK A01 T00711122  RH  024%=      5-min Rain = 0
KVA1 241302Z 23010KT 07/M12 A301 RMK A01 T00711122  RH  024%=      5-min Rain = 0
KVA1 241303Z 23009KT 07/M12 A301 RMK A01 T00711123  RH  024%=      5-min Rain = 0
KVA1 241304Z 23009KT 07/M12 A301 RMK A01 T00711122  RH  024%=      5-min Rain = 0
KVA1 241305Z 23009KT 07/M12 A301 RMK A01 T00701123  RH  024%=      5-min Rain = 0
KVA1 241306Z 23009KT 07/M12 A301 RMK A01 T00691123  RH  024%=      5-min Rain = 0
KVA1 241307Z 23009KT 07/M12 A301 RMK A01 T00681123  RH  024%=      5-min Rain = 0
KVA1 241308Z 23009KT 07/M12 A301 RMK A01 T00681122  RH  024%=      5-min Rain = 0
KVA1 241309Z 22009KT 07/M12 A301 RMK A01 T00671122  RH  024%=      5-min Rain = 0
KVA1 241310Z 23008KT 07/M12 A301 RMK A01 T00671122  RH  025%=      5-min Rain = 0
KVA1 241311Z 22009KT 07/M12 A301 RMK A01 T00661122  RH  025%=      5-min Rain = 0
KVA1 241312Z 22009KT 07/M12 A301 RMK A01 T00661122  RH  025%=      5-min Rain = 0
KVA1 241313Z 23008KT 07/M12 A301 RMK A01 T00661121  RH  025%=      5-min Rain = 0
KVA1 241314Z 23008KT 07/M12 A301 RMK A01 T00661121  RH  025%=      5-min Rain = 0
KVA1 241315Z 23008KT 07/M12 A301 RMK A01 T00661121  RH  025%=      5-min Rain = 0
KVA1 241316Z 23008KT 07/M12 A301 RMK A01 T00651120  RH  025%=      5-min Rain = 0
KVA1 241317Z 23007KT 07/M12 A301 RMK A01 T00651120  RH  025%=      5-min Rain = 0
KVA1 241318Z 23008KT 07/M12 A301 RMK A01 T00651120  RH  025%=      5-min Rain = 0
KVA1 241319Z 23008KT 07/M12 A301 RMK A01 T00651120  RH  025%=      5-min Rain = 0
KVA1 241320Z 23008KT 07/M12 A3011 RMK A01 T00661121  RH  025%=      5-min Rain = 0
KVA1 241321Z 22008KT 07/M12 A3011 RMK A01 T00661121  RH  025%=      5-min Rain = 0
KVA1 241322Z 23008KT 07/M12 A3011 RMK A01 T00671121  RH  025%=      5-min Rain = 0
KVA1 241323Z 23008KT 07/M12 A3011 RMK A01 T00671121  RH  025%=      5-min Rain = 0
KVA1 241324Z 23007KT 07/M12 A3011 RMK A01 T00671121  RH  025%=      5-min Rain = 0
KVA1 241325Z 23008KT 07/M12 A3011 RMK A01 T00671122  RH  025%=      5-min Rain = 0
KVA1 241326Z 22009KT 07/M12 A3011 RMK A01 T00661122  RH  025%=      5-min Rain = 0
KVA1 241327Z 22008KT 07/M12 A3011 RMK A01 T00661122  RH  025%=      5-min Rain = 0
KVA1 241328Z 22008KT 07/M12 A3011 RMK A01 T00661122  RH  025%=      5-min Rain = 0
KVA1 241329Z 22008KT 07/M12 A3011 RMK A01 T00661122  RH  025%=      5-min Rain = 0
KVA1 241330Z 21008KT 07/M12 A3011 RMK A01 T00661122  RH  025%=      5-min Rain = 0
KVA1 241331Z 21009KT 07/M12 A3011 RMK A01 T00651122  RH  025%=      5-min Rain = 0
KVA1 241332Z 21009KT 07/M12 A3011 RMK A01 T00651122  RH  025%=      5-min Rain = 0
KVA1 241333Z 21009KT 07/M12 A3011 RMK A01 T00651122  RH  025%=      5-min Rain = 0
KVA1 241334Z 20010KT 07/M12 A3011 RMK A01 T00651123  RH  025%=      5-min Rain = 0
KVA1 241335Z 21010KT 07/M12 A3011 RMK A01 T00651123  RH  025%=      5-min Rain = 0
KVA1 241336Z 20010KT 07/M12 A3011 RMK A01 T00661123  RH  024%=      5-min Rain = 0
KVA1 241337Z 20010KT 07/M12 A3011 RMK A01 T00661124  RH  024%=      5-min Rain = 0
KVA1 241338Z 21009KT 07/M12 A3011 RMK A01 T00661124  RH  024%=      5-min Rain = 0
KVA1 241339Z 21009KT 07/M12 A3011 RMK A01 T00671123  RH  024%=      5-min Rain = 0
KVA1 241340Z 20009KT 07/M12 A3011 RMK A01 T00671123  RH  024%=      5-min Rain = 0
KVA1 241341Z 20008KT 07/M12 A3012 RMK A01 T00671123  RH  024%=      5-min Rain = 0
KVA1 241342Z 20008KT 07/M12 A3012 RMK A01 T00671122  RH  025%=      5-min Rain = 0
KVA1 241343Z 20009KT 07/M12 A3012 RMK A01 T00671121  RH  025%=      5-min Rain = 0
KVA1 241344Z 21009KT 07/M12 A3012 RMK A01 T00661120  RH  025%=      5-min Rain = 0
KVA1 241345Z 20009KT 07/M12 A3012 RMK A01 T00661119  RH  025%=      5-min Rain = 0
KVA1 241346Z 20009KT 07/M12 A3012 RMK A01 T00651119  RH  026%=      5-min Rain = 0
KVA1 241347Z 20010KT 06/M12 A3012 RMK A01 T00641118  RH  026%=      5-min Rain = 0
KVA1 241348Z 20010KT 06/M12 A3012 RMK A01 T00641117  RH  026%=      5-min Rain = 0
KVA1 241349Z 20010KT 06/M12 A3012 RMK A01 T00631116  RH  026%=      5-min Rain = 0
KVA1 241350Z 20010KT 06/M12 A3012 RMK A01 T00631116  RH  027%=      5-min Rain = 0
KVA1 241351Z 20010KT 06/M12 A3012 RMK A01 T00621116  RH  027%=      5-min Rain = 0
KVA1 241352Z 20010KT 06/M12 A3012 RMK A01 T00621115  RH  027%=      5-min Rain = 0
KVA1 241353Z 20010KT 06/M12 A3012 RMK A01 T00611115  RH  027%=      5-min Rain = 0
KVA1 241354Z 21009KT 06/M12 A3012 RMK A01 T00611115  RH  027%=      5-min Rain = 0
KVA1 241355Z 20009KT 06/M12 A3012 RMK A01 T00601115  RH  027%=      5-min Rain = 0
KVA1 241356Z 20010KT 06/M11 A3012 RMK A01 T00601114  RH  027%=      5-min Rain = 0
KVA1 241357Z 21010KT 06/M11 A3012 RMK A01 T00591114  RH  028%=      5-min Rain = 0
KVA1 241358Z 21009KT 06/M11 A3012 RMK A01 T00591113  RH  028%=      5-min Rain = 0
KVA1 241359Z 21009KT 06/M11 A3012 RMK A01 T00591113  RH  028%=      5-min Rain = 0
KVA1 241400Z 21009KT 06/M11 A3012 RMK A01 T00581112  RH  028%=      5-min Rain = 0
KVA1 241401Z 21008KT 06/M11 A3012 RMK A01 T00581112  RH  028%=      5-min Rain = 0
KVA1 241402Z 21009KT 06/M11 A3012 RMK A01 T00581112  RH  028%=      5-min Rain = 0
KVA1 241403Z 21009KT 06/M11 A3012 RMK A01 T00581112  RH  028%=      5-min Rain = 0
KVA1 241404Z 21009KT 06/M11 A3012 RMK A01 T00581112  RH  028%=      5-min Rain = 0
KVA1 241405Z 21008KT 06/M11 A3012 RMK A01 T00571113  RH  028%=      5-min Rain = 0
KVA1 241406Z 21009KT 06/M11 A3012 RMK A01 T00561113  RH  029%=      5-min Rain = 0
KVA1 241407Z 20009KT 06/M11 A3012 RMK A01 T00561112  RH  029%=      5-min Rain = 0
KVA1 241408Z 21008KT 06/M11 A3012 RMK A01 T00551112  RH  029%=      5-min Rain = 0
KVA1 241409Z 21008KT 06/M11 A3012 RMK A01 T00551111  RH  029%=      5-min Rain = 0
KVA1 241410Z 21009KT 06/M11 A3012 RMK A01 T00551111  RH  029%=      5-min Rain = 0
KVA1 241411Z 21008KT 06/M11 A3012 RMK A01 T00551111  RH  029%=      5-min Rain = 0
KVA1 241412Z 21008KT 06/M11 A3012 RMK A01 T00551111  RH  029%=      5-min Rain = 0
KVA1 241413Z 21008KT 06/M11 A3012 RMK A01 T00561111  RH  029%=      5-min Rain = 0
KVA1 241414Z 21008KT 06/M11 A3012 RMK A01 T00571110  RH  029%=      5-min Rain = 0
KVA1 241415Z 21008KT 06/M11 A3012 RMK A01 T00571110  RH  029%=      5-min Rain = 0
KVA1 241416Z 21008KT 06/M11 A3012 RMK A01 T00581109  RH  029%=      5-min Rain = 0
KVA1 241417Z 21007KT 06/M11 A3013 RMK A01 T00591109  RH  029%=      5-min Rain = 0
KVA1 241418Z 21007KT 06/M11 A3013 RMK A01 T00601109  RH  029%=      5-min Rain = 0
KVA1 241419Z 21007KT 06/M11 A3013 RMK A01 T00611108  RH  029%=      5-min Rain = 0
KVA1 241420Z 21007KT 06/M11 A3013 RMK A01 T00621108  RH  028%=      5-min Rain = 0
KVA1 241421Z 21007KT 06/M11 A3013 RMK A01 T00621108  RH  028%=      5-min Rain = 0
KVA1 241422Z 20006KT 06/M11 A3013 RMK A01 T00641108  RH  028%=      5-min Rain = 0
KVA1 241423Z 20006KT 06/M11 A3013 RMK A01 T00641108  RH  028%=      5-min Rain = 0
KVA1 241424Z 20006KT 07/M11 A3013 RMK A01 T00651107  RH  028%=      5-min Rain = 0
KVA1 241425Z 20006KT 07/M11 A3013 RMK A01 T00661106  RH  028%=      5-min Rain = 0
KVA1 241426Z 19006KT 07/M11 A3013 RMK A01 T00671106  RH  028%=      5-min Rain = 0
KVA1 241427Z 20006KT 07/M11 A3013 RMK A01 T00671106  RH  028%=      5-min Rain = 0
KVA1 241428Z 20006KT 07/M11 A3013 RMK A01 T00681106  RH  028%=      5-min Rain = 0
KVA1 241429Z 20006KT 07/M11 A3013 RMK A01 T00691106  RH  028%=      5-min Rain = 0
KVA1 241430Z 19006KT 07/M11 A3013 RMK A01 T00711105  RH  027%=      5-min Rain = 0
KVA1 241431Z 19005KT 07/M10 A3014 RMK A01 T00721104  RH  027%=      5-min Rain = 0
KVA1 241432Z 19005KT 07/M10 A3014 RMK A01 T00731104  RH  027%=      5-min Rain = 0
KVA1 241433Z 19005KT 07/M10 A3014 RMK A01 T00741104  RH  027%=      5-min Rain = 0
KVA1 241434Z 19006KT 08/M10 A3014 RMK A01 T00761104  RH  027%=      5-min Rain = 0
KVA1 241435Z 19006KT 08/M10 A3014 RMK A01 T00771104  RH  026%=      5-min Rain = 0
KVA1 241436Z 18007KT 08/M10 A3014 RMK A01 T00771104  RH  027%=      5-min Rain = 0
KVA1 241437Z 19006KT 08/M10 A3014 RMK A01 T00761103  RH  027%=      5-min Rain = 0
KVA1 241438Z 19006KT 08/M10 A3014 RMK A01 T00761102  RH  027%=      5-min Rain = 0
KVA1 241439Z 19007KT 08/M10 A3014 RMK A01 T00761101  RH  027%=      5-min Rain = 0
KVA1 241440Z 19007KT 08/M10 A3014 RMK A01 T00761101  RH  027%=      5-min Rain = 0
KVA1 241441Z 19007KT 08/M10 A3014 RMK A01 T00761101  RH  027%=      5-min Rain = 0
KVA1 241442Z 19006KT 08/M10 A3014 RMK A01 T00771099  RH  027%=      5-min Rain = 0
KVA1 241443Z 19008KT 08/M10 A3014 RMK A01 T00781098  RH  027%=      5-min Rain = 0
KVA1 241444Z 20008KT 08/M10 A3014 RMK A01 T00791098  RH  027%=      5-min Rain = 0
KVA1 241445Z 20007KT 08/M10 A3014 RMK A01 T00791098  RH  028%=      5-min Rain = 0
KVA1 241446Z 19007KT 08/M10 A3014 RMK A01 T00791097  RH  028%=      5-min Rain = 0
KVA1 241447Z 20006KT 08/M10 A3015 RMK A01 T00811095  RH  028%=      5-min Rain = 0
KVA1 241448Z 20007KT 08/M10 A3015 RMK A01 T00821096  RH  027%=      5-min Rain = 0
KVA1 241449Z 20006KT 08/M10 A3015 RMK A01 T00831098  RH  027%=      5-min Rain = 0
KVA1 241450Z 20006KT 08/M10 A3015 RMK A01 T00831097  RH  027%=      5-min Rain = 0
KVA1 241451Z 20007KT 08/M10 A3015 RMK A01 T00841097  RH  027%=      5-min Rain = 0
KVA1 241452Z 20006KT 08/M10 A3015 RMK A01 T00841097  RH  027%=      5-min Rain = 0
KVA1 241453Z 20006KT 09/M10 A3015 RMK A01 T00861097  RH  026%=      5-min Rain = 0
KVA1 241454Z 21007KT 09/M10 A3015 RMK A01 T00881095  RH  026%=      5-min Rain = 0
KVA1 241455Z 21008KT 09/M10 A3015 RMK A01 T00891096  RH  026%=      5-min Rain = 0
KVA1 241456Z 21006KT 09/M10 A3015 RMK A01 T00901098  RH  026%=      5-min Rain = 0
KVA1 241457Z 21005KT 09/M10 A3015 RMK A01 T00901097  RH  026%=      5-min Rain = 0
KVA1 241458Z 22005KT 09/M10 A3015 RMK A01 T00911096  RH  026%=      5-min Rain = 0
KVA1 241459Z 23005KT 09/M09 A3015 RMK A01 T00931094  RH  026%=      5-min Rain = 0
KVA1 241500Z 22004KT 10/M09 A3015 RMK A01 T00961093  RH  025%=      5-min Rain = 0
KVA1 241501Z 23004KT 10/M09 A3015 RMK A01 T00981093  RH  025%=      5-min Rain = 0
KVA1 241502Z 27004KT 10/M09 A3015 RMK A01 T00991094  RH  025%=      5-min Rain = 0
KVA1 241503Z 31004KT 10/M10 A3016 RMK A01 T01011095  RH  024%=      5-min Rain = 0
KVA1 241504Z 33004KT 10/M10 A3016 RMK A01 T01021097  RH  024%=      5-min Rain = 0
KVA1 241505Z 35004KT 11/M10 A3016 RMK A01 T01051101  RH  022%=      5-min Rain = 0
KVA1 241506Z 35004KT 11/M10 A3016 RMK A01 T01071103  RH  022%=      5-min Rain = 0
KVA1 241507Z 00006KT 11/M10 A3016 RMK A01 T01091103  RH  021%=      5-min Rain = 0
KVA1 241508Z 01005KT 11/M10 A3016 RMK A01 T01111102  RH  021%=      5-min Rain = 0
KVA1 241509Z 01005KT 11/M10 A3016 RMK A01 T01111102  RH  021%=      5-min Rain = 0
KVA1 241510Z 01005KT 11/M10 A3016 RMK A01 T01101103  RH  021%=      5-min Rain = 0
KVA1 241511Z 02005KT 11/M11 A3017 RMK A01 T01081106  RH  021%=      5-min Rain = 0
KVA1 241512Z 02007KT 11/M11 A3017 RMK A01 T01071106  RH  021%=      5-min Rain = 0
KVA1 241513Z 02006KT 11/M11 A3017 RMK A01 T01051108  RH  021%=      5-min Rain = 0
KVA1 241514Z 02007KT 10/M11 A3017 RMK A01 T01041108  RH  021%=      5-min Rain = 0
KVA1 241515Z 01006KT 10/M11 A3017 RMK A01 T01021108  RH  022%=      5-min Rain = 0
KVA1 241516Z 02006KT 10/M11 A3017 RMK A01 T01011107  RH  022%=      5-min Rain = 0
KVA1 241517Z 01006KT 10/M11 A3017 RMK A01 T01011107  RH  022%=      5-min Rain = 0
KVA1 241518Z 02006KT 10/M11 A3017 RMK A01 T01011109  RH  022%=      5-min Rain = 0
KVA1 241519Z 02006KT 10/M11 A3017 RMK A01 T01001110  RH  022%=      5-min Rain = 0
KVA1 241520Z 01005KT 10/M11 A3017 RMK A01 T01001109  RH  022%=      5-min Rain = 0
KVA1 241521Z 01005KT 10/M11 A3017 RMK A01 T01001109  RH  022%=      5-min Rain = 0
KVA1 241522Z 01004KT 10/M11 A3017 RMK A01 T01011110  RH  022%=      5-min Rain = 0
KVA1 241523Z 02004KT 10/M11 A3017 RMK A01 T01021110  RH  021%=      5-min Rain = 0
KVA1 241524Z 01003KT 10/M11 A3017 RMK A01 T01031110  RH  021%=      5-min Rain = 0
KVA1 241525Z 02004KT 10/M11 A3017 RMK A01 T01041109  RH  021%=      5-min Rain = 0
KVA1 241526Z 02004KT 10/M11 A3017 RMK A01 T01041112  RH  021%=      5-min Rain = 0
KVA1 241527Z 04004KT 10/M11 A3017 RMK A01 T01041111  RH  021%=      5-min Rain = 0
KVA1 241528Z 03004KT 11/M11 A3017 RMK A01 T01061111  RH  021%=      5-min Rain = 0
KVA1 241529Z 03004KT 11/M11 A3017 RMK A01 T01071111  RH  020%=      5-min Rain = 0
KVA1 241530Z 02004KT 11/M11 A3017 RMK A01 T01071113  RH  020%=      5-min Rain = 0
KVA1 241531Z 03005KT 11/M11 A3017 RMK A01 T01071114  RH  020%=      5-min Rain = 0
KVA1 241532Z 02005KT 11/M11 A3017 RMK A01 T01081113  RH  020%=      5-min Rain = 0
KVA1 241533Z 04004KT 11/M11 A3017 RMK A01 T01101113  RH  020%=      5-min Rain = 0
KVA1 241534Z 04003KT 11/M11 A3017 RMK A01 T01111111  RH  020%=      5-min Rain = 0
KVA1 241535Z 05003KT 11/M11 A3017 RMK A01 T01111113  RH  020%=      5-min Rain = 0
KVA1 241536Z 04003KT 11/M11 A3017 RMK A01 T01121110  RH  020%=      5-min Rain = 0
KVA1 241537Z 03002KT 11/M11 A3017 RMK A01 T01131109  RH  020%=      5-min Rain = 0
KVA1 241538Z 03003KT 11/M11 A3017 RMK A01 T01141107  RH  020%=      5-min Rain = 0
KVA1 241539Z 05003KT 12/M11 A3017 RMK A01 T01171107  RH  020%=      5-min Rain = 0
KVA1 241540Z 04004KT 12/M11 A3017 RMK A01 T01181109  RH  019%=      5-min Rain = 0
KVA1 241541Z 04004KT 12/M11 A3017 RMK A01 T01191110  RH  019%=      5-min Rain = 0
KVA1 241542Z 04004KT 12/M11 A3017 RMK A01 T01211111  RH  019%=      5-min Rain = 0
KVA1 241543Z 05004KT 12/M11 A3018 RMK A01 T01231107  RH  019%=      5-min Rain = 0
KVA1 241544Z 05004KT 13/M11 A3018 RMK A01 T01251107  RH  019%=      5-min Rain = 0
KVA1 241545Z 03005KT 13/M11 A3018 RMK A01 T01261110  RH  018%=      5-min Rain = 0
KVA1 241546Z 05005KT 13/M11 A3018 RMK A01 T01261110  RH  018%=      5-min Rain = 0
KVA1 241547Z 04004KT 13/M11 A3018 RMK A01 T01271108  RH  018%=      5-min Rain = 0
KVA1 241548Z 04005KT 13/M11 A3018 RMK A01 T01281108  RH  018%=      5-min Rain = 0
KVA1 241549Z 03005KT 13/M11 A3018 RMK A01 T01291110  RH  018%=      5-min Rain = 0
KVA1 241550Z 04005KT 13/M11 A3018 RMK A01 T01291109  RH  018%=      5-min Rain = 0
KVA1 241551Z 04004KT 13/M11 A3018 RMK A01 T01301106  RH  018%=      5-min Rain = 0
KVA1 241552Z 03005KT 13/M11 A3018 RMK A01 T01321106  RH  018%=      5-min Rain = 0
KVA1 241553Z 04007KT 13/M11 A3018 RMK A01 T01341107  RH  018%=      5-min Rain = 0
KVA1 241554Z 03006KT 13/M11 A3018 RMK A01 T01341109  RH  017%=      5-min Rain = 0
KVA1 241555Z 04006KT 13/M11 A3018 RMK A01 T01341110  RH  017%=      5-min Rain = 0
KVA1 241556Z 05006KT 13/M11 A3019 RMK A01 T01341112  RH  017%=      5-min Rain = 0
KVA1 241557Z 03006KT 13/M11 A3019 RMK A01 T01341114  RH  017%=      5-min Rain = 0
KVA1 241558Z 03007KT 14/M12 A3019 RMK A01 T01351115  RH  017%=      5-min Rain = 0
KVA1 241559Z 04005KT 13/M11 A3019 RMK A01 T01331113  RH  017%=      5-min Rain = 0
KVA1 241600Z 02007KT 13/M11 A3019 RMK A01 T01341110  RH  017%=      5-min Rain = 0
KVA1 241601Z 03005KT 14/M11 A3019 RMK A01 T01351110  RH  017%=      5-min Rain = 0
KVA1 241602Z 02006KT 13/M11 A3019 RMK A01 T01341109  RH  017%=      5-min Rain = 0
KVA1 241603Z 01004KT 13/M11 A3019 RMK A01 T01341112  RH  017%=      5-min Rain = 0
KVA1 241604Z 03006KT 13/M11 A3019 RMK A01 T01341109  RH  017%=      5-min Rain = 0
KVA1 241605Z 02005KT 13/M11 A3019 RMK A01 T01331108  RH  018%=      5-min Rain = 0
KVA1 241606Z 01005KT 13/M11 A3019 RMK A01 T01331105  RH  018%=      5-min Rain = 0
KVA1 241607Z 01006KT 13/M10 A3019 RMK A01 T01331104  RH  018%=      5-min Rain = 0
KVA1 241608Z 02008KT 13/M10 A3019 RMK A01 T01341104  RH  018%=      5-min Rain = 0
KVA1 241609Z 04006KT 14/M11 A3019 RMK A01 T01351107  RH  018%=      5-min Rain = 0
KVA1 241610Z 03008KT 14/M12 A3019 RMK A01 T01361116  RH  016%=      5-min Rain = 0
KVA1 241611Z 04006KT 14/M12 A3018 RMK A01 T01361120  RH  016%=      5-min Rain = 0
KVA1 241612Z 04006KT 14/M12 A3018 RMK A01 T01381119  RH  016%=      5-min Rain = 0
KVA1 241613Z 04006KT 14/M12 A3018 RMK A01 T01391120  RH  015%=      5-min Rain = 0
KVA1 241614Z 04005KT 14/M12 A3018 RMK A01 T01371123  RH  015%=      5-min Rain = 0
KVA1 241615Z 03006KT 14/M12 A3018 RMK A01 T01361123  RH  015%=      5-min Rain = 0
KVA1 241616Z 01006KT 14/M12 A3018 RMK A01 T01351123  RH  015%=      5-min Rain = 0
KVA1 241617Z 02005KT 13/M12 A3019 RMK A01 T01341123  RH  016%=      5-min Rain = 0
KVA1 241618Z 02007KT 13/M12 A3019 RMK A01 T01341121  RH  016%=      5-min Rain = 0
KVA1 241619Z 01005KT 14/M12 A3019 RMK A01 T01351119  RH  016%=      5-min Rain = 0
KVA1 241620Z 00006KT 14/M12 A3019 RMK A01 T01361118  RH  016%=      5-min Rain = 0
KVA1 241621Z 02008KT 14/M12 A3019 RMK A01 T01361118  RH  016%=      5-min Rain = 0
KVA1 241622Z 02007KT 14/M12 A3019 RMK A01 T01361117  RH  016%=      5-min Rain = 0
KVA1 241623Z 03008KT 14/M12 A3019 RMK A01 T01381117  RH  016%=      5-min Rain = 0
KVA1 241624Z 02009KT 14/M12 A3019 RMK A01 T01391118  RH  016%=      5-min Rain = 0
KVA1 241625Z 01009KT 14/M12 A3019 RMK A01 T01401116  RH  016%=      5-min Rain = 0
KVA1 241626Z 02011KT 14/M12 A3019 RMK A01 T01401117  RH  016%=      5-min Rain = 0
KVA1 241627Z 02010KT 14/M12 A3019 RMK A01 T01401118  RH  016%=      5-min Rain = 0
KVA1 241628Z 02011KT 14/M12 A3019 RMK A01 T01401117  RH  016%=      5-min Rain = 0
KVA1 241629Z 01010KT 14/M12 A3019 RMK A01 T01401118  RH  016%=      5-min Rain = 0
KVA1 241630Z 01012KT 14/M12 A3019 RMK A01 T01401120  RH  015%=      5-min Rain = 0
KVA1 241631Z 02010KT 14/M12 A3019 RMK A01 T01401120  RH  015%=      5-min Rain = 0
KVA1 241632Z 03011KT 14/M12 A3019 RMK A01 T01411120  RH  015%=      5-min Rain = 0
KVA1 241633Z 02010KT 14/M12 A3018 RMK A01 T01441119  RH  015%=      5-min Rain = 0
KVA1 241634Z 02011KT 15/M12 A3018 RMK A01 T01461116  RH  015%=      5-min Rain = 0
KVA1 241635Z 02008KT 15/M11 A3018 RMK A01 T01471114  RH  015%=      5-min Rain = 0
KVA1 241636Z 03008KT 15/M11 A3018 RMK A01 T01501111  RH  016%=      5-min Rain = 0
KVA1 241637Z 02011KT 15/M11 A3018 RMK A01 T01521108  RH  016%=      5-min Rain = 0
KVA1 241638Z 03010KT 16/M11 A3018 RMK A01 T01551106  RH  016%=      5-min Rain = 0
KVA1 241639Z 03012KT 16/M11 A3018 RMK A01 T01571105  RH  015%=      5-min Rain = 0
KVA1 241640Z 03013KT 16/M11 A3018 RMK A01 T01571106  RH  015%=      5-min Rain = 0
KVA1 241641Z 03013KT 15/M11 A3018 RMK A01 T01541106  RH  016%=      5-min Rain = 0
KVA1 241642Z 03013KT 15/M11 A3019 RMK A01 T01541106  RH  016%=      5-min Rain = 0
KVA1 241643Z 03012KT 15/M11 A3019 RMK A01 T01541107  RH  015%=      5-min Rain = 0
KVA1 241644Z 02011KT 15/M10 A3019 RMK A01 T01541104  RH  016%=      5-min Rain = 0
KVA1 241645Z 01012KT 16/M10 A3019 RMK A01 T01551102  RH  016%=      5-min Rain = 0
KVA1 241646Z 02011KT 16/M10 A3018 RMK A01 T01561103  RH  016%=      5-min Rain = 0
KVA1 241647Z 02013KT 16/M10 A3018 RMK A01 T01561103  RH  016%=      5-min Rain = 0
KVA1 241648Z 01011KT 16/M10 A3018 RMK A01 T01571100  RH  016%=      5-min Rain = 0
KVA1 241649Z 01013KT 16/M10 A3018 RMK A01 T01571101  RH  016%=      5-min Rain = 0
KVA1 241650Z 02016KT 16/M10 A3018 RMK A01 T01561101  RH  016%=      5-min Rain = 0
KVA1 241651Z 02013KT 15/M10 A3018 RMK A01 T01541103  RH  016%=      5-min Rain = 0
KVA1 241652Z 01013KT 15/M10 A3018 RMK A01 T01531102  RH  016%=      5-min Rain = 0
KVA1 241653Z 02014KT 16/M10 A3018 RMK A01 T01551100  RH  016%=      5-min Rain = 0
KVA1 241654Z 01012KT 16/M10 A3018 RMK A01 T01551102  RH  016%=      5-min Rain = 0
KVA1 241655Z 01012KT 16/M10 A3018 RMK A01 T01551101  RH  016%=      5-min Rain = 0
KVA1 241656Z 01013KT 16/M10 A3018 RMK A01 T01561103  RH  016%=      5-min Rain = 0
KVA1 241657Z 02013KT 16/M11 A3018 RMK A01 T01551105  RH  016%=      5-min Rain = 0
KVA1 241658Z 03011KT 15/M10 A3018 RMK A01 T01541103  RH  016%=      5-min Rain = 0
KVA1 241659Z 03012KT 15/M10 A3018 RMK A01 T01541104  RH  016%=      5-min Rain = 0
KVA1 241700Z 03009KT 15/M10 A3018 RMK A01 T01541104  RH  016%=      5-min Rain = 0
KVA1 241701Z 01011KT 16/M10 A3018 RMK A01 T01581099  RH  016%=      5-min Rain = 0
KVA1 241702Z 02012KT 16/M10 A3018 RMK A01 T01591099  RH  016%=      5-min Rain = 0
KVA1 241703Z 03011KT 16/M10 A3018 RMK A01 T01591100  RH  016%=      5-min Rain = 0
KVA1 241704Z 02011KT 16/M10 A3018 RMK A01 T01591097  RH  016%=      5-min Rain = 0
KVA1 241705Z 02012KT 16/M09 A3018 RMK A01 T01611093  RH  017%=      5-min Rain = 0
KVA1 241706Z 03013KT 16/M10 A3018 RMK A01 T01591095  RH  017%=      5-min Rain = 0
KVA1 241707Z 02013KT 16/M10 A3018 RMK A01 T01571095  RH  017%=      5-min Rain = 0
KVA1 241708Z 02012KT 16/M10 A3018 RMK A01 T01561095  RH  017%=      5-min Rain = 0
KVA1 241709Z 01013KT 16/M10 A3018 RMK A01 T01561099  RH  016%=      5-min Rain = 0
KVA1 241710Z 02010G15KT 15/M10 A3018 RMK A01 T01541097  RH  017%=      5-min Rain = 0
KVA1 241711Z 02014KT 16/M10 A3018 RMK A01 T01571099  RH  016%=      5-min Rain = 0
KVA1 241712Z 02013KT 16/M10 A3018 RMK A01 T01571101  RH  016%=      5-min Rain = 0
KVA1 241713Z 03012KT 16/M10 A3018 RMK A01 T01561101  RH  016%=      5-min Rain = 0
KVA1 241714Z 02010KT 16/M10 A3018 RMK A01 T01571101  RH  016%=      5-min Rain = 0
KVA1 241715Z 02011KT 16/M10 A3018 RMK A01 T01581099  RH  016%=      5-min Rain = 0
KVA1 241716Z 04013KT 16/M10 A3018 RMK A01 T01581099  RH  016%=      5-min Rain = 0
KVA1 241717Z 02012KT 16/M10 A3018 RMK A01 T01581100  RH  016%=      5-min Rain = 0
KVA1 241718Z 02010KT 16/M10 A3018 RMK A01 T01591099  RH  016%=      5-min Rain = 0
KVA1 241719Z 02013KT 16/M10 A3018 RMK A01 T01591099  RH  016%=      5-min Rain = 0
KVA1 241720Z 02010KT 16/M10 A3018 RMK A01 T01601100  RH  016%=      5-min Rain = 0
KVA1 241721Z 03013KT 16/M10 A3018 RMK A01 T01611099  RH  016%=      5-min Rain = 0
KVA1 241722Z 03012KT 16/M10 A3018 RMK A01 T01611100  RH  016%=      5-min Rain = 0
KVA1 241723Z 03010KT 16/M10 A3018 RMK A01 T01591100  RH  016%=      5-min Rain = 0
KVA1 241724Z 03010KT 16/M10 A3018 RMK A01 T01601098  RH  016%=      5-min Rain = 0
KVA1 241725Z 03009KT 16/M10 A3018 RMK A01 T01621099  RH  016%=      5-min Rain = 0
KVA1 241726Z 02012KT 17/M10 A3018 RMK A01 T01651100  RH  015%=      5-min Rain = 0
KVA1 241727Z 02012KT 16/M10 A3018 RMK A01 T01621103  RH  015%=      5-min Rain = 0
KVA1 241728Z 01010KT 16/M10 A3018 RMK A01 T01611103  RH  015%=      5-min Rain = 0
KVA1 241729Z 03011KT 16/M10 A3018 RMK A01 T01611103  RH  015%=      5-min Rain = 0
KVA1 241730Z 03011KT 16/M10 A3018 RMK A01 T01621103  RH  015%=      5-min Rain = 0
KVA1 241731Z 03012KT 16/M10 A3018 RMK A01 T01631102  RH  015%=      5-min Rain = 0
KVA1 241732Z 03011KT 16/M10 A3018 RMK A01 T01631104  RH  015%=      5-min Rain = 0
KVA1 241733Z 04011KT 16/M11 A3018 RMK A01 T01621105  RH  015%=      5-min Rain = 0
KVA1 241734Z 02009KT 16/M11 A3018 RMK A01 T01621105  RH  015%=      5-min Rain = 0
KVA1 241735Z 01010KT 16/M10 A3018 RMK A01 T01621101  RH  015%=      5-min Rain = 0
KVA1 241736Z 03011KT 16/M10 A3018 RMK A01 T01621102  RH  015%=      5-min Rain = 0
KVA1 241737Z 05012KT 16/M10 A3018 RMK A01 T01621104  RH  015%=      5-min Rain = 0
KVA1 241738Z 04011KT 16/M10 A3018 RMK A01 T01611103  RH  015%=      5-min Rain = 0
KVA1 241739Z 04011KT 16/M10 A3018 RMK A01 T01611102  RH  015%=      5-min Rain = 0
KVA1 241740Z 04012KT 16/M10 A3018 RMK A01 T01611104  RH  015%=      5-min Rain = 0
KVA1 241741Z 05012KT 16/M11 A3018 RMK A01 T01621105  RH  015%=      5-min Rain = 0
KVA1 241742Z 04009KT 16/M10 A3018 RMK A01 T01621103  RH  015%=      5-min Rain = 0
KVA1 241743Z 03011KT 16/M10 A3018 RMK A01 T01631102  RH  015%=      5-min Rain = 0
KVA1 241744Z 03011KT 17/M10 A3018 RMK A01 T01651102  RH  015%=      5-min Rain = 0
KVA1 241745Z 02012KT 16/M10 A3018 RMK A01 T01641102  RH  015%=      5-min Rain = 0
KVA1 241746Z 03010KT 16/M10 A3018 RMK A01 T01641101  RH  015%=      5-min Rain = 0
KVA1 241747Z 03009KT 17/M10 A3018 RMK A01 T01651098  RH  016%=      5-min Rain = 0
KVA1 241748Z 01011KT 16/M10 A3018 RMK A01 T01641099  RH  016%=      5-min Rain = 0
KVA1 241749Z 02010KT 16/M10 A3018 RMK A01 T01631099  RH  016%=      5-min Rain = 0
KVA1 241750Z 01009KT 17/M10 A3017 RMK A01 T01651096  RH  016%=      5-min Rain = 0
KVA1 241751Z 03010KT 17/M10 A3017 RMK A01 T01661099  RH  015%=      5-min Rain = 0
KVA1 241752Z 02012KT 17/M10 A3017 RMK A01 T01661097  RH  016%=      5-min Rain = 0
KVA1 241753Z 03012KT 17/M10 A3017 RMK A01 T01661099  RH  015%=      5-min Rain = 0
KVA1 241754Z 03010KT 17/M10 A3017 RMK A01 T01661099  RH  015%=      5-min Rain = 0
KVA1 241755Z 03009KT 17/M10 A3017 RMK A01 T01691101  RH  015%=      5-min Rain = 0
KVA1 241756Z 03009KT 17/M10 A3017 RMK A01 T01691099  RH  015%=      5-min Rain = 0
KVA1 241757Z 01009KT 17/M10 A3017 RMK A01 T01701097  RH  015%=      5-min Rain = 0
KVA1 241758Z 01010KT 17/M10 A3017 RMK A01 T01711099  RH  015%=      5-min Rain = 0
KVA1 241759Z 02009G14KT 17/M10 A3017 RMK A01 T01681100  RH  015%=      5-min Rain = 0
KVA1 241800Z 03010KT 17/M10 A3017 RMK A01 T01691100  RH  015%=      5-min Rain = 0
KVA1 241801Z 02011KT 17/M10 A3017 RMK A01 T01701103  RH  014%=      5-min Rain = 0
KVA1 241802Z 04010KT 17/M10 A3017 RMK A01 T01681103  RH  015%=      5-min Rain = 0
KVA1 241803Z 02007KT 17/M10 A3017 RMK A01 T01691101  RH  015%=      5-min Rain = 0
KVA1 241804Z 03010KT 17/M10 A3017 RMK A01 T01681103  RH  015%=      5-min Rain = 0
KVA1 241805Z 02009KT 17/M11 A3017 RMK A01 T01671105  RH  015%=      5-min Rain = 0
KVA1 241806Z 01009KT 17/M11 A3017 RMK A01 T01671107  RH  014%=      5-min Rain = 0
KVA1 241807Z 01010KT 17/M11 A3017 RMK A01 T01661107  RH  014%=      5-min Rain = 0
KVA1 241808Z 02008KT 17/M10 A3017 RMK A01 T01661103  RH  015%=      5-min Rain = 0
KVA1 241809Z 02008KT 17/M10 A3017 RMK A01 T01671101  RH  015%=      5-min Rain = 0
KVA1 241810Z 04008G13KT 17/M10 A3017 RMK A01 T01661102  RH  015%=      5-min Rain = 0
KVA1 241811Z 03011KT 17/M10 A3017 RMK A01 T01671103  RH  015%=      5-min Rain = 0
KVA1 241812Z 02009KT 17/M11 A3017 RMK A01 T01691107  RH  014%=      5-min Rain = 0
KVA1 241813Z 03008KT 17/M11 A3017 RMK A01 T01691105  RH  014%=      5-min Rain = 0
KVA1 241814Z 01010KT 17/M10 A3017 RMK A01 T01701103  RH  015%=      5-min Rain = 0
KVA1 241815Z 02009KT 17/M10 A3017 RMK A01 T01701103  RH  014%=      5-min Rain = 0
KVA1 241816Z 03010KT 17/M10 A3017 RMK A01 T01711102  RH  015%=      5-min Rain = 0
KVA1 241817Z 01008KT 17/M10 A3016 RMK A01 T01711104  RH  014%=      5-min Rain = 0
KVA1 241818Z 03011KT 17/M10 A3016 RMK A01 T01701103  RH  015%=      5-min Rain = 0
KVA1 241819Z 03011KT 17/M10 A3016 RMK A01 T01711101  RH  015%=      5-min Rain = 0
KVA1 241820Z 02007KT 17/M10 A3016 RMK A01 T01711102  RH  015%=      5-min Rain = 0
KVA1 241821Z 03005KT 17/M10 A3016 RMK A01 T01721101  RH  015%=      5-min Rain = 0
KVA1 241822Z 01007KT 17/M10 A3016 RMK A01 T01741100  RH  015%=      5-min Rain = 0
KVA1 241823Z 01007KT 17/M10 A3016 RMK A01 T01741100  RH  014%=      5-min Rain = 0
KVA1 241824Z 02011KT 18/M10 A3016 RMK A01 T01761099  RH  014%=      5-min Rain = 0
KVA1 241825Z 02008KT 17/M10 A3016 RMK A01 T01741102  RH  014%=      5-min Rain = 0
KVA1 241826Z 03008KT 17/M10 A3016 RMK A01 T01721101  RH  015%=      5-min Rain = 0
KVA1 241827Z 03008KT 17/M10 A3016 RMK A01 T01741100  RH  014%=      5-min Rain = 0
KVA1 241828Z 03008KT 17/M10 A3016 RMK A01 T01741101  RH  014%=      5-min Rain = 0
KVA1 241829Z 36005KT 17/M11 A3016 RMK A01 T01721105  RH  014%=      5-min Rain = 0
KVA1 241830Z 01007KT 17/M10 A3016 RMK A01 T01701102  RH  015%=      5-min Rain = 0
KVA1 241831Z 02009KT 17/M10 A3016 RMK A01 T01711100  RH  015%=      5-min Rain = 0
KVA1 241832Z 04008KT 17/M10 A3016 RMK A01 T01731100  RH  015%=      5-min Rain = 0
KVA1 241833Z 03010KT 18/M10 A3016 RMK A01 T01771100  RH  014%=      5-min Rain = 0
KVA1 241834Z 03006KT 18/M10 A3016 RMK A01 T01751103  RH  014%=      5-min Rain = 0
KVA1 241835Z 02008KT 17/M10 A3016 RMK A01 T01731103  RH  014%=      5-min Rain = 0
KVA1 241836Z 04007KT 17/M10 A3016 RMK A01 T01711100  RH  015%=      5-min Rain = 0
KVA1 241837Z 01008KT 17/M10 A3016 RMK A01 T01701098  RH  015%=      5-min Rain = 0
KVA1 241838Z 02007KT 17/M10 A3016 RMK A01 T01721096  RH  015%=      5-min Rain = 0
KVA1 241839Z 04006KT 18/M10 A3016 RMK A01 T01751099  RH  014%=      5-min Rain = 0
KVA1 241840Z 03005KT 18/M10 A3015 RMK A01 T01751100  RH  014%=      5-min Rain = 0
KVA1 241841Z 04009KT 17/M10 A3015 RMK A01 T01741096  RH  015%=      5-min Rain = 0
KVA1 241842Z 04008KT 17/M10 A3015 RMK A01 T01731099  RH  015%=      5-min Rain = 0
KVA1 241843Z 05008KT 17/M10 A3015 RMK A01 T01731098  RH  015%=      5-min Rain = 0
KVA1 241844Z 05008KT 18/M10 A3015 RMK A01 T01751098  RH  015%=      5-min Rain = 0
KVA1 241845Z 04009KT 18/M10 A3015 RMK A01 T01771098  RH  014%=      5-min Rain = 0
KVA1 241846Z 05007KT 18/M10 A3015 RMK A01 T01781099  RH  014%=      5-min Rain = 0
KVA1 241847Z 02005KT 18/M10 A3015 RMK A01 T01771101  RH  014%=      5-min Rain = 0
KVA1 241848Z 03005G10KT 18/M10 A3015 RMK A01 T01751099  RH  014%=      5-min Rain = 0
KVA1 241849Z 03008KT 18/M10 A3015 RMK A01 T01771096  RH  015%=      5-min Rain = 0
KVA1 241850Z 03008KT 18/M09 A3015 RMK A01 T01801093  RH  015%=      5-min Rain = 0
KVA1 241851Z 04008KT 18/M09 A3015 RMK A01 T01811094  RH  014%=      5-min Rain = 0
KVA1 241852Z 05009KT 18/M10 A3015 RMK A01 T01831096  RH  014%=      5-min Rain = 0
KVA1 241853Z 04007KT 18/M10 A3015 RMK A01 T01811100  RH  014%=      5-min Rain = 0
KVA1 241854Z 04010KT 18/M10 A3015 RMK A01 T01781100  RH  014%=      5-min Rain = 0
KVA1 241855Z 04009G14KT 18/M10 A3015 RMK A01 T01771099  RH  014%=      5-min Rain = 0
KVA1 241856Z 02009KT 18/M10 A3015 RMK A01 T01751099  RH  015%=      5-min Rain = 0
KVA1 241857Z 03008KT 18/M10 A3015 RMK A01 T01761097  RH  015%=      5-min Rain = 0
KVA1 241858Z 05011KT 18/M10 A3015 RMK A01 T01781097  RH  014%=      5-min Rain = 0
KVA1 241859Z 03010KT 18/M10 A3015 RMK A01 T01791098  RH  014%=      5-min Rain = 0
KVA1 241900Z 03008KT 18/M10 A3015 RMK A01 T01781099  RH  014%=      5-min Rain = 0
KVA1 241901Z 03010KT 18/M10 A3015 RMK A01 T01781097  RH  014%=      5-min Rain = 0
KVA1 241902Z 01010KT 18/M10 A3015 RMK A01 T01771098  RH  014%=      5-min Rain = 0
KVA1 241903Z 01010KT 18/M10 A3014 RMK A01 T01761097  RH  015%=      5-min Rain = 0
KVA1 241904Z 03009KT 18/M10 A3014 RMK A01 T01771096  RH  015%=      5-min Rain = 0
KVA1 241905Z 03008KT 18/M09 A3014 RMK A01 T01811094  RH  015%=      5-min Rain = 0
KVA1 241906Z 01008KT 18/M10 A3014 RMK A01 T01811096  RH  014%=      5-min Rain = 0
KVA1 241907Z 02006KT 18/M10 A3014 RMK A01 T01811096  RH  014%=      5-min Rain = 0
KVA1 241908Z 00008KT 18/M10 A3014 RMK A01 T01801096  RH  014%=      5-min Rain = 0
KVA1 241909Z 02010KT 18/M09 A3014 RMK A01 T01801094  RH  015%=      5-min Rain = 0
KVA1 241910Z 01009KT 18/M09 A3014 RMK A01 T01801093  RH  015%=      5-min Rain = 0
KVA1 241911Z 00010KT 18/M09 A3014 RMK A01 T01791093  RH  015%=      5-min Rain = 0
KVA1 241912Z 05010KT 18/M09 A3014 RMK A01 T01801093  RH  015%=      5-min Rain = 0
KVA1 241913Z 04007KT 18/M10 A3014 RMK A01 T01811095  RH  014%=      5-min Rain = 0
KVA1 241914Z 01009KT 18/M09 A3013 RMK A01 T01811093  RH  015%=      5-min Rain = 0
KVA1 241915Z 01008KT 18/M09 A3013 RMK A01 T01811092  RH  015%=      5-min Rain = 0
KVA1 241916Z 04008KT 18/M09 A3013 RMK A01 T01821090  RH  015%=      5-min Rain = 0
KVA1 241917Z 04011KT 18/M10 A3013 RMK A01 T01831096  RH  014%=      5-min Rain = 0
KVA1 241918Z 04009KT 18/M10 A3013 RMK A01 T01811097  RH  014%=      5-min Rain = 0
KVA1 241919Z 05009KT 18/M10 A3013 RMK A01 T01811096  RH  014%=      5-min Rain = 0
KVA1 241920Z 05006KT 18/M09 A3013 RMK A01 T01791094  RH  015%=      5-min Rain = 0
KVA1 241921Z 00006KT 18/M09 A3013 RMK A01 T01781090  RH  015%=      5-min Rain = 0
KVA1 241922Z 02008KT 18/M09 A3013 RMK A01 T01821088  RH  015%=      5-min Rain = 0
KVA1 241923Z 04011KT 19/M09 A3013 RMK A01 T01871089  RH  015%=      5-min Rain = 0
KVA1 241924Z 05009KT 19/M09 A3013 RMK A01 T01871093  RH  014%=      5-min Rain = 0
KVA1 241925Z 05005KT 19/M09 A3013 RMK A01 T01851094  RH  014%=      5-min Rain = 0
KVA1 241926Z 03009KT 18/M10 A3013 RMK A01 T01801095  RH  014%=      5-min Rain = 0
KVA1 241927Z 03010KT 18/M09 A3013 RMK A01 T01801093  RH  015%=      5-min Rain = 0
KVA1 241928Z 04009KT 18/M09 A3013 RMK A01 T01801092  RH  015%=      5-min Rain = 0
KVA1 241929Z 05007KT 18/M09 A3013 RMK A01 T01801091  RH  015%=      5-min Rain = 0
KVA1 241930Z 04007KT 18/M09 A3012 RMK A01 T01801093  RH  015%=      5-min Rain = 0
KVA1 241931Z 00004KT 18/M09 A3012 RMK A01 T01811091  RH  015%=      5-min Rain = 0
KVA1 241932Z 36005KT 18/M09 A3012 RMK A01 T01841088  RH  015%=      5-min Rain = 0
KVA1 241933Z 04005KT 19/M09 A3012 RMK A01 T01891087  RH  015%=      5-min Rain = 0
KVA1 241934Z 02009KT 19/M09 A3012 RMK A01 T01901089  RH  014%=      5-min Rain = 0
KVA1 241935Z 03009KT 19/M09 A3012 RMK A01 T01911091  RH  014%=      5-min Rain = 0
KVA1 241936Z 03006KT 19/M10 A3012 RMK A01 T01891096  RH  014%=      5-min Rain = 0
KVA1 241937Z 02008KT 19/M10 A3012 RMK A01 T01851096  RH  014%=      5-min Rain = 0
KVA1 241938Z 01008KT 18/M10 A3012 RMK A01 T01831096  RH  014%=      5-min Rain = 0
KVA1 241939Z 03007G12KT 18/M10 A3012 RMK A01 T01811095  RH  014%=      5-min Rain = 0
KVA1 241940Z 03009KT 18/M09 A3012 RMK A01 T01811094  RH  014%=      5-min Rain = 0
KVA1 241941Z 02009KT 18/M09 A3012 RMK A01 T01811094  RH  015%=      5-min Rain = 0
KVA1 241942Z 04008KT 18/M09 A3011 RMK A01 T01821093  RH  014%=      5-min Rain = 0
KVA1 241943Z 02008KT 19/M09 A3011 RMK A01 T01861089  RH  015%=      5-min Rain = 0
KVA1 241944Z 01006KT 19/M09 A3011 RMK A01 T01891091  RH  014%=      5-min Rain = 0
KVA1 241945Z 03007KT 19/M09 A3011 RMK A01 T01911089  RH  014%=      5-min Rain = 0
KVA1 241946Z 03007KT 19/M09 A3011 RMK A01 T01931094  RH  013%=      5-min Rain = 0
KVA1 241947Z 04006KT 19/M10 A3011 RMK A01 T01921095  RH  013%=      5-min Rain = 0
KVA1 241948Z 03008KT 19/M09 A3011 RMK A01 T01911093  RH  014%=      5-min Rain = 0
KVA1 241949Z 04008KT 19/M09 A3011 RMK A01 T01921093  RH  014%=      5-min Rain = 0
KVA1 241950Z 06008KT 19/M10 A3011 RMK A01 T01931095  RH  013%=      5-min Rain = 0
KVA1 241951Z 06007KT 19/M10 A3011 RMK A01 T01921099  RH  013%=      5-min Rain = 0
KVA1 241952Z 04006KT 19/M10 A3011 RMK A01 T01911099  RH  013%=      5-min Rain = 0
KVA1 241953Z 04004KT 19/M10 A3011 RMK A01 T01901101  RH  013%=      5-min Rain = 0
KVA1 241954Z 03006KT 19/M10 A301 RMK A01 T01901098  RH  013%=      5-min Rain = 0
KVA1 241955Z 03005KT 19/M10 A3011 RMK A01 T01921099  RH  013%=      5-min Rain = 0
KVA1 241956Z 02005KT 19/M10 A301 RMK A01 T01921101  RH  013%=      5-min Rain = 0
KVA1 241957Z 02007KT 19/M10 A301 RMK A01 T01901100  RH  013%=      5-min Rain = 0
KVA1 241958Z 02009KT 19/M10 A301 RMK A01 T01901099  RH  013%=      5-min Rain = 0
KVA1 241959Z 03007KT 19/M10 A301 RMK A01 T01911099  RH  013%=      5-min Rain = 0
KVA1 242000Z 00004KT 19/M10 A301 RMK A01 T01901099  RH  013%=      5-min Rain = 0
KVA1 242001Z 01004KT 19/M10 A301 RMK A01 T01891097  RH  013%=      5-min Rain = 0
KVA1 242002Z 02009KT 19/M10 A301 RMK A01 T01901097  RH  013%=      5-min Rain = 0
KVA1 242003Z 01007KT 19/M10 A301 RMK A01 T01921096  RH  013%=      5-min Rain = 0
KVA1 242004Z 02007KT 20/M10 A301 RMK A01 T01951096  RH  013%=      5-min Rain = 0
KVA1 242005Z 03007KT 20/M10 A301 RMK A01 T01951098  RH  013%=      5-min Rain = 0
KVA1 242006Z 02007KT 20/M10 A301 RMK A01 T01961097  RH  013%=      5-min Rain = 0
KVA1 242007Z 01006KT 20/M10 A301 RMK A01 T01961097  RH  013%=      5-min Rain = 0
KVA1 242008Z 02006KT 20/M10 A301 RMK A01 T01971096  RH  013%=      5-min Rain = 0
KVA1 242009Z 02005KT 20/M10 A301 RMK A01 T01981097  RH  013%=      5-min Rain = 0
KVA1 242010Z 02006KT 20/M10 A301 RMK A01 T01971098  RH  013%=      5-min Rain = 0
KVA1 242011Z 03008KT 20/M10 A301 RMK A01 T01961098  RH  013%=      5-min Rain = 0
KVA1 242012Z 05007KT 20/M10 A301 RMK A01 T01951100  RH  013%=      5-min Rain = 0
KVA1 242013Z 04007KT 19/M10 A301 RMK A01 T01941099  RH  013%=      5-min Rain = 0
KVA1 242014Z 02008KT 20/M09 A301 RMK A01 T01971093  RH  013%=      5-min Rain = 0
KVA1 242015Z 02008KT 20/M09 A301 RMK A01 T01991093  RH  013%=      5-min Rain = 0
KVA1 242016Z 01009KT 20/M09 A301 RMK A01 T01991094  RH  013%=      5-min Rain = 0
KVA1 242017Z 02008KT 20/M10 A3009 RMK A01 T01971096  RH  013%=      5-min Rain = 0
KVA1 242018Z 00006KT 20/M10 A3009 RMK A01 T01951095  RH  013%=      5-min Rain = 0
KVA1 242019Z 00005KT 20/M09 A3009 RMK A01 T01951094  RH  013%=      5-min Rain = 0
KVA1 242020Z 03008KT 19/M09 A3009 RMK A01 T01941094  RH  013%=      5-min Rain = 0
KVA1 242021Z 04010KT 20/M10 A3009 RMK A01 T01961099  RH  013%=      5-min Rain = 0
KVA1 242022Z 06008KT 19/M10 A3009 RMK A01 T01941101  RH  013%=      5-min Rain = 0
KVA1 242023Z 06006KT 19/M10 A3009 RMK A01 T01941100  RH  013%=      5-min Rain = 0
KVA1 242024Z 04005KT 19/M10 A3009 RMK A01 T01931101  RH  013%=      5-min Rain = 0
KVA1 242025Z 02006KT 19/M10 A3009 RMK A01 T01921096  RH  013%=      5-min Rain = 0
KVA1 242026Z 01009KT 19/M09 A3009 RMK A01 T01941094  RH  013%=      5-min Rain = 0
KVA1 242027Z 01008KT 20/M10 A3009 RMK A01 T01951096  RH  013%=      5-min Rain = 0
KVA1 242028Z 00006KT 20/M09 A3009 RMK A01 T01951094  RH  013%=      5-min Rain = 0
KVA1 242029Z 36009KT 20/M09 A3009 RMK A01 T01961093  RH  013%=      5-min Rain = 0
KVA1 242030Z 00009KT 20/M09 A3009 RMK A01 T01951094  RH  013%=      5-min Rain = 0
KVA1 242031Z 03007KT 19/M10 A3009 RMK A01 T01931097  RH  013%=      5-min Rain = 0
KVA1 242032Z 05005KT 19/M10 A3009 RMK A01 T01911096  RH  013%=      5-min Rain = 0
KVA1 242033Z 03004KT 19/M10 A3009 RMK A01 T01921096  RH  013%=      5-min Rain = 0
KVA1 242034Z 05008KT 19/M09 A3008 RMK A01 T01931094  RH  013%=      5-min Rain = 0
KVA1 242035Z 06009KT 20/M10 A3008 RMK A01 T01961097  RH  013%=      5-min Rain = 0
KVA1 242036Z 06008KT 20/M10 A3008 RMK A01 T01971097  RH  013%=      5-min Rain = 0
KVA1 242037Z 07007KT 20/M10 A3008 RMK A01 T01971097  RH  013%=      5-min Rain = 0
KVA1 242038Z 06007KT 20/M10 A3008 RMK A01 T01981097  RH  013%=      5-min Rain = 0
KVA1 242039Z 05004KT 20/M10 A3008 RMK A01 T01981099  RH  013%=      5-min Rain = 0
KVA1 242040Z 04005KT 20/M10 A3008 RMK A01 T01981097  RH  013%=      5-min Rain = 0
KVA1 242041Z 06006KT 20/M10 A3008 RMK A01 T01991097  RH  013%=      5-min Rain = 0
KVA1 242042Z 05004KT 20/M10 A3008 RMK A01 T02011098  RH  012%=      5-min Rain = 0
KVA1 242043Z 05003KT 20/M10 A3008 RMK A01 T02001099  RH  012%=      5-min Rain = 0
KVA1 242044Z 06006KT 20/M10 A3008 RMK A01 T01981097  RH  013%=      5-min Rain = 0
KVA1 242045Z 06004KT 20/M10 A3008 RMK A01 T01991095  RH  013%=      5-min Rain = 0
KVA1 242046Z 05004KT 20/M10 A3008 RMK A01 T02001097  RH  013%=      5-min Rain = 0
KVA1 242047Z 03006KT 20/M10 A3008 RMK A01 T02001096  RH  013%=      5-min Rain = 0
KVA1 242048Z 05007KT 20/M09 A3008 RMK A01 T02021093  RH  013%=      5-min Rain = 0
KVA1 242049Z 05007KT 20/M10 A3008 RMK A01 T02041096  RH  012%=      5-min Rain = 0
KVA1 242050Z 05006KT 20/M10 A3008 RMK A01 T02041097  RH  012%=      5-min Rain = 0
KVA1 242051Z 03005KT 20/M10 A3008 RMK A01 T02021097  RH  012%=      5-min Rain = 0
KVA1 242052Z 07006KT 20/M10 A3008 RMK A01 T02011097  RH  012%=      5-min Rain = 0
KVA1 242053Z 07004KT 20/M09 A3008 RMK A01 T02001094  RH  013%=      5-min Rain = 0
KVA1 242054Z 03008KT 20/M09 A3008 RMK A01 T02021093  RH  013%=      5-min Rain = 0
KVA1 242055Z 04008KT 20/M10 A3008 RMK A01 T02021095  RH  013%=      5-min Rain = 0
KVA1 242056Z 03004KT 20/M10 A3008 RMK A01 T02011096  RH  013%=      5-min Rain = 0
KVA1 242057Z 06005KT 20/M10 A3007 RMK A01 T02001095  RH  013%=      5-min Rain = 0
KVA1 242058Z 03005KT 20/M09 A3007 RMK A01 T02001093  RH  013%=      5-min Rain = 0
KVA1 242059Z 04008KT 20/M09 A3007 RMK A01 T02021092  RH  013%=      5-min Rain = 0
KVA1 242100Z 04008KT 20/M09 A3007 RMK A01 T02041091  RH  013%=      5-min Rain = 0
KVA1 242101Z 05007KT 20/M09 A3007 RMK A01 T02041093  RH  013%=      5-min Rain = 0
KVA1 242102Z 05006KT 20/M10 A3007 RMK A01 T02001095  RH  013%=      5-min Rain = 0
KVA1 242103Z 04007KT 20/M09 A3007 RMK A01 T02001094  RH  013%=      5-min Rain = 0
KVA1 242104Z 06008KT 20/M09 A3007 RMK A01 T02011092  RH  013%=      5-min Rain = 0
KVA1 242105Z 06006KT 20/M09 A3007 RMK A01 T02011094  RH  013%=      5-min Rain = 0
KVA1 242106Z 04004KT 20/M10 A3007 RMK A01 T01991095  RH  013%=      5-min Rain = 0
KVA1 242107Z 03005KT 20/M09 A3007 RMK A01 T02001094  RH  013%=      5-min Rain = 0
KVA1 242108Z 03004KT 20/M09 A3007 RMK A01 T02021093  RH  013%=      5-min Rain = 0
KVA1 242109Z 01003KT 20/M09 A3007 RMK A01 T02031092  RH  013%=      5-min Rain = 0
KVA1 242110Z 05004KT 21/M09 A3007 RMK A01 T02051092  RH  013%=      5-min Rain = 0
KVA1 242111Z 06005KT 21/M09 A3007 RMK A01 T02061091  RH  013%=      5-min Rain = 0
KVA1 242112Z 05008KT 21/M09 A3007 RMK A01 T02061093  RH  012%=      5-min Rain = 0
KVA1 242113Z 05008KT 20/M10 A3007 RMK A01 T02031095  RH  012%=      5-min Rain = 0
KVA1 242114Z 04006KT 20/M09 A3007 RMK A01 T02031094  RH  013%=      5-min Rain = 0
KVA1 242115Z 05005KT 20/M10 A3007 RMK A01 T02011095  RH  013%=      5-min Rain = 0
KVA1 242116Z 06006KT 20/M10 A3007 RMK A01 T02011096  RH  013%=      5-min Rain = 0
KVA1 242117Z 03003KT 20/M10 A3007 RMK A01 T02021098  RH  012%=      5-min Rain = 0
KVA1 242118Z 03003KT 20/M10 A3007 RMK A01 T02021096  RH  013%=      5-min Rain = 0
KVA1 242119Z 04006KT 20/M09 A3007 RMK A01 T02041094  RH  013%=      5-min Rain = 0
KVA1 242120Z 04005KT 21/M09 A3007 RMK A01 T02071091  RH  013%=      5-min Rain = 0
KVA1 242121Z 06008KT 21/M09 A3007 RMK A01 T02081092  RH  012%=      5-min Rain = 0
KVA1 242122Z 07007KT 21/M09 A3007 RMK A01 T02091090  RH  013%=      5-min Rain = 0
KVA1 242123Z 09008KT 21/M09 A3007 RMK A01 T02081090  RH  013%=      5-min Rain = 0
KVA1 242124Z 09008KT 21/M09 A3007 RMK A01 T02071090  RH  013%=      5-min Rain = 0
KVA1 242125Z 07007KT 21/M09 A3007 RMK A01 T02071089  RH  013%=      5-min Rain = 0
KVA1 242126Z 07005KT 21/M09 A3007 RMK A01 T02071090  RH  013%=      5-min Rain = 0
KVA1 242127Z 08006KT 21/M09 A3007 RMK A01 T02071089  RH  013%=      5-min Rain = 0
KVA1 242128Z 11003KT 21/M09 A3007 RMK A01 T02071092  RH  013%=      5-min Rain = 0
KVA1 242129Z 11001KT 21/M09 A3007 RMK A01 T02061091  RH  013%=      5-min Rain = 0
KVA1 242130Z 08005KT 21/M09 A3007 RMK A01 T02061091  RH  013%=      5-min Rain = 0
KVA1 242131Z 10006KT 21/M09 A3007 RMK A01 T02061091  RH  013%=      5-min Rain = 0
KVA1 242132Z 11007KT 21/M09 A3007 RMK A01 T02071090  RH  013%=      5-min Rain = 0
KVA1 242133Z 12005KT 21/M09 A3007 RMK A01 T02081094  RH  012%=      5-min Rain = 0
KVA1 242134Z 09004KT 21/M09 A3006 RMK A01 T02061093  RH  012%=      5-min Rain = 0
KVA1 242135Z 05005KT 21/M09 A3006 RMK A01 T02071092  RH  013%=      5-min Rain = 0
KVA1 242136Z 05004KT 21/M09 A3006 RMK A01 T02071093  RH  012%=      5-min Rain = 0
KVA1 242137Z 09005KT 21/M09 A3006 RMK A01 T02081089  RH  013%=      5-min Rain = 0
KVA1 242138Z 10006KT 21/M09 A3006 RMK A01 T02101089  RH  013%=      5-min Rain = 0
KVA1 242139Z 11007KT 21/M09 A3006 RMK A01 T02121088  RH  013%=      5-min Rain = 0
KVA1 242140Z 10006KT 21/M09 A3006 RMK A01 T02131090  RH  012%=      5-min Rain = 0
KVA1 242141Z 07008KT 21/M09 A3006 RMK A01 T02131089  RH  012%=      5-min Rain = 0
KVA1 242142Z 08005KT 21/M09 A3006 RMK A01 T02111092  RH  012%=      5-min Rain = 0
KVA1 242143Z 06004KT 21/M09 A3006 RMK A01 T02091092  RH  012%=      5-min Rain = 0
KVA1 242144Z 06005KT 21/M09 A3006 RMK A01 T02081094  RH  012%=      5-min Rain = 0
KVA1 242145Z 06003KT 21/M09 A3006 RMK A01 T02071093  RH  012%=      5-min Rain = 0
KVA1 242146Z 10004KT 21/M10 A3006 RMK A01 T02071095  RH  012%=      5-min Rain = 0
KVA1 242147Z 08006KT 21/M09 A3006 RMK A01 T02071092  RH  012%=      5-min Rain = 0
KVA1 242148Z 07006KT 21/M09 A3006 RMK A01 T02091094  RH  012%=      5-min Rain = 0
KVA1 242149Z 09005KT 21/M09 A3006 RMK A01 T02101094  RH  012%=      5-min Rain = 0
KVA1 242150Z 09005KT 21/M09 A3006 RMK A01 T02101094  RH  012%=      5-min Rain = 0
KVA1 242151Z 09006KT 21/M09 A3006 RMK A01 T02101093  RH  012%=      5-min Rain = 0
KVA1 242152Z 09007KT 21/M09 A3006 RMK A01 T02111093  RH  012%=      5-min Rain = 0
KVA1 242153Z 08004KT 21/M10 A3006 RMK A01 T02111095  RH  012%=      5-min Rain = 0
KVA1 242154Z 04003KT 21/M10 A3006 RMK A01 T02131095  RH  012%=      5-min Rain = 0
KVA1 242155Z 09004KT 21/M10 A3006 RMK A01 T02131096  RH  012%=      5-min Rain = 0
KVA1 242156Z 10006KT 21/M09 A3006 RMK A01 T02141094  RH  012%=      5-min Rain = 0
KVA1 242157Z 11008KT 21/M09 A3006 RMK A01 T02141092  RH  012%=      5-min Rain = 0
KVA1 242158Z 10006KT 21/M09 A3006 RMK A01 T02141092  RH  012%=      5-min Rain = 0
KVA1 242159Z 08005KT 21/M09 A3006 RMK A01 T02131094  RH  012%=      5-min Rain = 0
KVA1 242200Z 06004KT 21/M09 A3006 RMK A01 T02121093  RH  012%=      5-min Rain = 0
KVA1 242201Z 09005KT 21/M09 A3006 RMK A01 T02111093  RH  012%=      5-min Rain = 0
KVA1 242202Z 12007KT 21/M09 A3006 RMK A01 T02111091  RH  012%=      5-min Rain = 0
KVA1 242203Z 11005KT 21/M09 A3006 RMK A01 T02121092  RH  012%=      5-min Rain = 0
KVA1 242204Z 10007KT 21/M09 A3005 RMK A01 T02131091  RH  012%=      5-min Rain = 0
KVA1 242205Z 11007KT 21/M09 A3005 RMK A01 T02131093  RH  012%=      5-min Rain = 0
KVA1 242206Z 09006KT 21/M09 A3005 RMK A01 T02121093  RH  012%=      5-min Rain = 0
KVA1 242207Z 06005KT 21/M09 A3005 RMK A01 T02121093  RH  012%=      5-min Rain = 0
KVA1 242208Z 07005KT 21/M09 A3005 RMK A01 T02111093  RH  012%=      5-min Rain = 0
KVA1 242209Z 09006KT 21/M09 A3005 RMK A01 T02131092  RH  012%=      5-min Rain = 0
KVA1 242210Z 08005KT 22/M09 A3006 RMK A01 T02151093  RH  012%=      5-min Rain = 0
KVA1 242211Z 06004KT 21/M09 A3006 RMK A01 T02141093  RH  012%=      5-min Rain = 0
KVA1 242212Z 09003KT 21/M09 A3005 RMK A01 T02121092  RH  012%=      5-min Rain = 0
KVA1 242213Z 09006KT 21/M09 A3005 RMK A01 T02121090  RH  012%=      5-min Rain = 0
KVA1 242214Z 10008KT 21/M09 A3005 RMK A01 T02121090  RH  012%=      5-min Rain = 0
KVA1 242215Z 10008KT 21/M09 A3005 RMK A01 T02121091  RH  012%=      5-min Rain = 0
KVA1 242216Z 10008KT 21/M09 A3005 RMK A01 T02111091  RH  012%=      5-min Rain = 0
KVA1 242217Z 10005KT 21/M09 A3005 RMK A01 T02111093  RH  012%=      5-min Rain = 0
KVA1 242218Z 07007KT 21/M09 A3005 RMK A01 T02111093  RH  012%=      5-min Rain = 0
KVA1 242219Z 05004KT 21/M09 A3005 RMK A01 T02101094  RH  012%=      5-min Rain = 0
KVA1 242220Z 06006KT 21/M09 A3005 RMK A01 T02091093  RH  012%=      5-min Rain = 0
KVA1 242221Z 07006KT 21/M09 A3005 RMK A01 T02101093  RH  012%=      5-min Rain = 0
KVA1 242222Z 08007KT 21/M09 A3005 RMK A01 T02111093  RH  012%=      5-min Rain = 0
KVA1 242223Z 11005KT 21/M09 A3005 RMK A01 T02121093  RH  012%=      5-min Rain = 0
KVA1 242224Z 10005KT 21/M09 A3005 RMK A01 T02141091  RH  012%=      5-min Rain = 0
KVA1 242225Z 09002KT 22/M09 A3005 RMK A01 T02151091  RH  012%=      5-min Rain = 0
KVA1 242226Z 05004KT 22/M09 A3005 RMK A01 T02161092  RH  012%=      5-min Rain = 0
KVA1 242227Z 09003KT 22/M09 A3005 RMK A01 T02171091  RH  012%=      5-min Rain = 0
KVA1 242228Z 07005KT 22/M09 A3005 RMK A01 T02171090  RH  012%=      5-min Rain = 0
KVA1 242229Z 10005KT 22/M09 A3005 RMK A01 T02171092  RH  012%=      5-min Rain = 0
KVA1 242230Z 09004KT 22/M09 A3005 RMK A01 T02171092  RH  012%=      5-min Rain = 0
KVA1 242231Z 07006KT 22/M09 A3005 RMK A01 T02161091  RH  012%=      5-min Rain = 0
KVA1 242232Z 09002KT 22/M09 A3005 RMK A01 T02151093  RH  012%=      5-min Rain = 0
KVA1 242233Z 09005KT 22/M09 A3005 RMK A01 T02151092  RH  012%=      5-min Rain = 0
KVA1 242234Z 08004KT 22/M09 A3005 RMK A01 T02151093  RH  012%=      5-min Rain = 0
KVA1 242235Z 06005KT 21/M10 A3005 RMK A01 T02121096  RH  012%=      5-min Rain = 0
KVA1 242236Z 07006KT 21/M09 A3004 RMK A01 T02121093  RH  012%=      5-min Rain = 0
KVA1 242237Z 08007KT 21/M10 A3004 RMK A01 T02131095  RH  012%=      5-min Rain = 0
KVA1 242238Z 05003KT 21/M10 A3004 RMK A01 T02121095  RH  012%=      5-min Rain = 0
KVA1 242239Z 07004KT 21/M09 A3004 RMK A01 T02121093  RH  012%=      5-min Rain = 0
KVA1 242240Z 06004KT 21/M09 A3004 RMK A01 T02141093  RH  012%=      5-min Rain = 0
KVA1 242241Z 06005KT 22/M09 A3004 RMK A01 T02161093  RH  012%=      5-min Rain = 0
KVA1 242242Z 05004KT 22/M09 A3004 RMK A01 T02161094  RH  012%=      5-min Rain = 0
KVA1 242243Z 07004KT 22/M09 A3004 RMK A01 T02151094  RH  012%=      5-min Rain = 0
KVA1 242244Z 06004KT 21/M10 A3004 RMK A01 T02141095  RH  012%=      5-min Rain = 0
KVA1 242245Z 06004KT 21/M10 A3004 RMK A01 T02131095  RH  012%=      5-min Rain = 0
KVA1 242246Z 07003KT 21/M10 A3004 RMK A01 T02121095  RH  012%=      5-min Rain = 0
KVA1 242247Z 05004KT 21/M09 A3004 RMK A01 T02131093  RH  012%=      5-min Rain = 0
KVA1 242248Z 05003KT 21/M09 A3004 RMK A01 T02141094  RH  012%=      5-min Rain = 0
KVA1 242249Z 10003KT 21/M09 A3004 RMK A01 T02141094  RH  012%=      5-min Rain = 0
KVA1 242250Z 09005KT 22/M09 A3004 RMK A01 T02151093  RH  012%=      5-min Rain = 0
KVA1 242251Z 09004KT 21/M10 A3004 RMK A01 T02141095  RH  012%=      5-min Rain = 0
KVA1 242252Z 11003KT 21/M10 A3004 RMK A01 T02131096  RH  012%=      5-min Rain = 0
KVA1 242253Z 09004KT 21/M09 A3004 RMK A01 T02121094  RH  012%=      5-min Rain = 0
KVA1 242254Z 06005KT 21/M09 A3004 RMK A01 T02141092  RH  012%=      5-min Rain = 0
KVA1 242255Z 06005KT 22/M09 A3004 RMK A01 T02151094  RH  012%=      5-min Rain = 0
KVA1 242256Z 05005KT 22/M10 A3004 RMK A01 T02151095  RH  012%=      5-min Rain = 0
KVA1 242257Z 05004KT 21/M09 A3004 RMK A01 T02141094  RH  012%=      5-min Rain = 0
KVA1 242258Z 05003KT 21/M10 A3004 RMK A01 T02141095  RH  012%=      5-min Rain = 0
KVA1 242259Z 02004KT 21/M09 A3004 RMK A01 T02141094  RH  012%=      5-min Rain = 0
KVA1 242300Z 03004KT 21/M09 A3003 RMK A01 T02141094  RH  012%=      5-min Rain = 0
KVA1 242301Z 02003KT 22/M09 A3003 RMK A01 T02151094  RH  012%=      5-min Rain = 0
KVA1 242302Z 08003KT 22/M09 A3003 RMK A01 T02161094  RH  012%=      5-min Rain = 0
KVA1 242303Z 10006KT 22/M09 A3003 RMK A01 T02171092  RH  012%=      5-min Rain = 0
KVA1 242304Z 09005KT 22/M10 A3003 RMK A01 T02171095  RH  012%=      5-min Rain = 0
KVA1 242305Z 11005KT 22/M10 A3003 RMK A01 T02151095  RH  012%=      5-min Rain = 0
KVA1 242306Z 12005KT 21/M09 A3003 RMK A01 T02141094  RH  012%=      5-min Rain = 0
KVA1 242307Z 12003KT 21/M09 A3003 RMK A01 T02141094  RH  012%=      5-min Rain = 0
KVA1 242308Z 10006KT 22/M09 A3003 RMK A01 T02151094  RH  012%=      5-min Rain = 0
KVA1 242309Z 09007KT 22/M09 A3003 RMK A01 T02151093  RH  012%=      5-min Rain = 0
KVA1 242310Z 09008KT 22/M09 A3003 RMK A01 T02151094  RH  012%=      5-min Rain = 0
KVA1 242311Z 10007KT 22/M10 A3003 RMK A01 T02151095  RH  012%=      5-min Rain = 0
KVA1 242312Z 10007KT 21/M10 A3003 RMK A01 T02141095  RH  012%=      5-min Rain = 0
KVA1 242313Z 10006KT 21/M10 A3003 RMK A01 T02141095  RH  012%=      5-min Rain = 0
KVA1 242314Z 09005KT 21/M10 A3003 RMK A01 T02141095  RH  012%=      5-min Rain = 0
KVA1 242315Z 08006KT 21/M10 A3003 RMK A01 T02141095  RH  012%=      5-min Rain = 0
KVA1 242316Z 08005KT 21/M10 A3003 RMK A01 T02131096  RH  012%=      5-min Rain = 0
KVA1 242317Z 05003KT 21/M10 A3003 RMK A01 T02121096  RH  012%=      5-min Rain = 0
KVA1 242318Z 05005KT 21/M10 A3003 RMK A01 T02121096  RH  012%=      5-min Rain = 0
KVA1 242319Z 05005KT 21/M10 A3003 RMK A01 T02121096  RH  012%=      5-min Rain = 0
KVA1 242320Z 06004KT 21/M10 A3003 RMK A01 T02121096  RH  012%=      5-min Rain = 0
KVA1 242321Z 06003KT 21/M10 A3003 RMK A01 T02121096  RH  012%=      5-min Rain = 0
KVA1 242322Z 06001KT 21/M10 A3003 RMK A01 T02121096  RH  012%=      5-min Rain = 0
KVA1 242323Z 07003KT 21/M10 A3003 RMK A01 T02121097  RH  012%=      5-min Rain = 0
KVA1 242324Z 07004KT 21/M10 A3003 RMK A01 T02121096  RH  012%=      5-min Rain = 0
KVA1 242325Z 11004KT 21/M09 A3003 RMK A01 T02121094  RH  012%=      5-min Rain = 0
KVA1 242326Z 06004KT 21/M09 A3003 RMK A01 T02131093  RH  012%=      5-min Rain = 0
KVA1 242327Z 06004KT 21/M09 A3003 RMK A01 T02141093  RH  012%=      5-min Rain = 0
KVA1 242328Z 07003KT 21/M09 A3003 RMK A01 T02131094  RH  012%=      5-min Rain = 0
KVA1 242329Z 09004KT 21/M09 A3003 RMK A01 T02141093  RH  012%=      5-min Rain = 0
KVA1 242330Z 10005KT 21/M09 A3003 RMK A01 T02141093  RH  012%=      5-min Rain = 0
KVA1 242331Z 10005KT 21/M09 A3003 RMK A01 T02141094  RH  012%=      5-min Rain = 0
KVA1 242332Z 09004KT 21/M09 A3003 RMK A01 T02141093  RH  012%=      5-min Rain = 0
KVA1 242333Z 10004KT 21/M09 A3003 RMK A01 T02141093  RH  012%=      5-min Rain = 0
KVA1 242334Z 09001KT 21/M09 A3003 RMK A01 T02141094  RH  012%=      5-min Rain = 0
KVA1 242335Z 08002KT 21/M09 A3003 RMK A01 T02141094  RH  012%=      5-min Rain = 0
KVA1 242336Z 05004KT 21/M09 A3003 RMK A01 T02141094  RH  012%=      5-min Rain = 0
KVA1 242337Z 06004KT 21/M09 A3003 RMK A01 T02141093  RH  012%=      5-min Rain = 0
KVA1 242338Z 04004KT 21/M09 A3003 RMK A01 T02141093  RH  012%=      5-min Rain = 0
KVA1 242339Z 05003KT 21/M10 A3003 RMK A01 T02141095  RH  012%=      5-min Rain = 0
KVA1 242340Z 05002KT 21/M09 A3003 RMK A01 T02131094  RH  012%=      5-min Rain = 0
KVA1 242341Z 03004KT 21/M09 A3003 RMK A01 T02141093  RH  012%=      5-min Rain = 0
KVA1 242342Z 02003KT 21/M09 A3003 RMK A01 T02141094  RH  012%=      5-min Rain = 0
KVA1 242343Z 04003KT 21/M09 A3003 RMK A01 T02131094  RH  012%=      5-min Rain = 0
KVA1 242344Z 04004KT 21/M09 A3003 RMK A01 T02131094  RH  012%=      5-min Rain = 0
KVA1 242345Z 06004KT 21/M09 A3003 RMK A01 T02131094  RH  012%=      5-min Rain = 0
KVA1 242346Z 06002KT 21/M09 A3003 RMK A01 T02131094  RH  012%=      5-min Rain = 0
KVA1 242347Z 07004KT 21/M09 A3003 RMK A01 T02141093  RH  012%=      5-min Rain = 0
KVA1 242348Z 07004KT 21/M09 A3003 RMK A01 T02141094  RH  012%=      5-min Rain = 0
KVA1 242349Z 03004KT 21/M09 A3003 RMK A01 T02141093  RH  012%=      5-min Rain = 0
KVA1 242350Z 04004KT 21/M09 A3003 RMK A01 T02141093  RH  012%=      5-min Rain = 0
KVA1 242351Z 04004KT 22/M09 A3002 RMK A01 T02151093  RH  012%=      5-min Rain = 0
KVA1 242352Z 03003KT 22/M09 A3002 RMK A01 T02151094  RH  012%=      5-min Rain = 0
KVA1 242353Z 06003KT 22/M09 A3002 RMK A01 T02151092  RH  012%=      5-min Rain = 0
KVA1 242354Z 08003KT 22/M09 A3002 RMK A01 T02161092  RH  012%=      5-min Rain = 0
KVA1 242355Z 08003KT 22/M09 A3002 RMK A01 T02161094  RH  012%=      5-min Rain = 0
KVA1 242356Z 05004KT 22/M09 A3002 RMK A01 T02161094  RH  012%=      5-min Rain = 0
KVA1 242357Z 05005KT 22/M09 A3002 RMK A01 T02161094  RH  012%=      5-min Rain = 0
KVA1 242358Z 04005KT 22/M09 A3002 RMK A01 T02161094  RH  012%=      5-min Rain = 0
KVA1 242359Z 06006KT 22/M10 A3002 RMK A01 T02151095  RH  012%=      5-min Rain = 0
KVA1 250000Z 06005KT 22/M09 A3002 RMK A01 T02151094  RH  012%=      5-min Rain = 0
KVA1 250001Z 07005KT 22/M09 A3002 RMK A01 T02151094  RH  012%=      5-min Rain = 0
KVA1 250002Z 07005KT 21/M09 A3002 RMK A01 T02141094  RH  012%=      5-min Rain = 0
KVA1 250003Z 04006KT 22/M09 A3002 RMK A01 T02151092  RH  012%=      5-min Rain = 0
KVA1 250004Z 04006KT 21/M09 A3002 RMK A01 T02141091  RH  012%=      5-min Rain = 0
KVA1 250005Z 04006KT 21/M09 A3002 RMK A01 T02141091  RH  012%=      5-min Rain = 0
KVA1 250006Z 04005KT 21/M09 A3002 RMK A01 T02131092  RH  012%=      5-min Rain = 0
KVA1 250007Z 03005KT 21/M09 A3002 RMK A01 T02131092  RH  012%=      5-min Rain = 0
KVA1 250008Z 04005KT 21/M09 A3002 RMK A01 T02131092  RH  012%=      5-min Rain = 0
KVA1 250009Z 03004KT 21/M09 A3002 RMK A01 T02121093  RH  012%=      5-min Rain = 0
KVA1 250010Z 05004KT 21/M09 A3002 RMK A01 T02121091  RH  012%=      5-min Rain = 0
KVA1 250011Z 05005KT 21/M09 A3002 RMK A01 T02121092  RH  012%=      5-min Rain = 0
KVA1 250012Z 03005KT 21/M09 A3002 RMK A01 T02121091  RH  012%=      5-min Rain = 0
KVA1 250013Z 03007KT 21/M09 A3002 RMK A01 T02121091  RH  012%=      5-min Rain = 0
KVA1 250014Z 04006KT 21/M09 A3002 RMK A01 T02121092  RH  012%=      5-min Rain = 0
KVA1 250015Z 03006KT 21/M09 A3002 RMK A01 T02111092  RH  012%=      5-min Rain = 0
KVA1 250016Z 04005KT 21/M09 A3002 RMK A01 T02111091  RH  012%=      5-min Rain = 0
KVA1 250017Z 04007KT 21/M09 A3002 RMK A01 T02111090  RH  012%=      5-min Rain = 0
KVA1 250018Z 04007KT 21/M09 A3002 RMK A01 T02101092  RH  012%=      5-min Rain = 0
KVA1 250019Z 04006KT 21/M09 A3002 RMK A01 T02101092  RH  012%=      5-min Rain = 0
KVA1 250020Z 04006KT 21/M09 A3002 RMK A01 T02101091  RH  012%=      5-min Rain = 0
KVA1 250021Z 05006KT 21/M09 A3002 RMK A01 T02091091  RH  012%=      5-min Rain = 0
KVA1 250022Z 05004KT 21/M09 A3003 RMK A01 T02091090  RH  013%=      5-min Rain = 0
KVA1 250023Z 05005KT 21/M09 A3003 RMK A01 T02081090  RH  013%=      5-min Rain = 0
KVA1 250024Z 06005KT 21/M09 A3003 RMK A01 T02081090  RH  013%=      5-min Rain = 0
KVA1 250025Z 06004KT 21/M09 A3003 RMK A01 T02081090  RH  013%=      5-min Rain = 0
KVA1 250026Z 05004KT 21/M09 A3003 RMK A01 T02081090  RH  013%=      5-min Rain = 0
KVA1 250027Z 06005KT 21/M09 A3003 RMK A01 T02081090  RH  013%=      5-min Rain = 0
KVA1 250028Z 05005KT 21/M09 A3003 RMK A01 T02071092  RH  013%=      5-min Rain = 0
KVA1 250029Z 05005KT 21/M09 A3003 RMK A01 T02071091  RH  013%=      5-min Rain = 0
KVA1 250030Z 04006KT 21/M09 A3003 RMK A01 T02061091  RH  013%=      5-min Rain = 0
KVA1 250031Z 04005KT 20/M09 A3003 RMK A01 T02041091  RH  013%=      5-min Rain = 0
KVA1 250032Z 05005KT 20/M09 A3003 RMK A01 T02031091  RH  013%=      5-min Rain = 0
KVA1 250033Z 05006KT 20/M09 A3003 RMK A01 T02031090  RH  013%=      5-min Rain = 0
KVA1 250034Z 05005KT 20/M09 A3003 RMK A01 T02021090  RH  013%=      5-min Rain = 0
KVA1 250035Z 05004KT 20/M09 A3003 RMK A01 T02011089  RH  013%=      5-min Rain = 0
KVA1 250036Z 04004KT 20/M09 A3003 RMK A01 T02001089  RH  013%=      5-min Rain = 0
KVA1 250037Z 04004KT 20/M09 A3003 RMK A01 T01991088  RH  014%=      5-min Rain = 0
KVA1 250038Z 04005KT 20/M09 A3003 RMK A01 T01981089  RH  014%=      5-min Rain = 0
KVA1 250039Z 04004KT 20/M09 A3003 RMK A01 T01971089  RH  014%=      5-min Rain = 0
KVA1 250040Z 04004KT 20/M09 A3003 RMK A01 T01951088  RH  014%=      5-min Rain = 0
KVA1 250041Z 04004KT 19/M09 A3003 RMK A01 T01941088  RH  014%=      5-min Rain = 0
KVA1 250042Z 04004KT 19/M09 A3003 RMK A01 T01931088  RH  014%=      5-min Rain = 0
KVA1 250043Z 04004KT 19/M09 A3003 RMK A01 T01921088  RH  014%=      5-min Rain = 0
KVA1 250044Z 04003KT 19/M09 A3003 RMK A01 T01911088  RH  014%=      5-min Rain = 0
KVA1 250045Z 04003KT 19/M09 A3003 RMK A01 T01901088  RH  014%=      5-min Rain = 0
KVA1 250046Z 04003KT 19/M09 A3004 RMK A01 T01891088  RH  014%=      5-min Rain = 0
KVA1 250047Z 04004KT 19/M09 A3004 RMK A01 T01881086  RH  015%=      5-min Rain = 0
KVA1 250048Z 04004KT 19/M09 A3004 RMK A01 T01871087  RH  015%=      5-min Rain = 0
KVA1 250049Z 05004KT 19/M09 A3004 RMK A01 T01861087  RH  015%=      5-min Rain = 0
KVA1 250050Z 06004KT 19/M09 A3004 RMK A01 T01851087  RH  015%=      5-min Rain = 0
KVA1 250051Z 07004KT 18/M09 A3004 RMK A01 T01841086  RH  015%=      5-min Rain = 0
KVA1 250052Z 07005KT 18/M08 A3004 RMK A01 T01821084  RH  015%=      5-min Rain = 0
KVA1 250053Z 07005KT 18/M08 A3004 RMK A01 T01811083  RH  016%=      5-min Rain = 0
KVA1 250054Z 07005KT 18/M08 A3004 RMK A01 T01801083  RH  016%=      5-min Rain = 0
KVA1 250055Z 08006KT 18/M08 A3004 RMK A01 T01791081  RH  016%=      5-min Rain = 0
KVA1 250056Z 08006KT 18/M08 A3004 RMK A01 T01781078  RH  017%=      5-min Rain = 0
KVA1 250057Z 08006KT 18/M08 A3004 RMK A01 T01781077  RH  017%=      5-min Rain = 0
KVA1 250058Z 08006KT 18/M08 A3004 RMK A01 T01781075  RH  017%=      5-min Rain = 0
KVA1 250059Z 07005KT 18/M07 A3004 RMK A01 T01771074  RH  017%=      5-min Rain = 0
KVA1 250100Z 06005KT 18/M07 A3004 RMK A01 T01771074  RH  017%=      5-min Rain = 0
KVA1 250101Z 06005KT 18/M07 A3004 RMK A01 T01761073  RH  018%=      5-min Rain = 0
KVA1 250102Z 06005KT 18/M07 A3004 RMK A01 T01761073  RH  018%=      5-min Rain = 0
KVA1 250103Z 06005KT 18/M07 A3004 RMK A01 T01761072  RH  018%=      5-min Rain = 0
KVA1 250104Z 07005KT 18/M07 A3004 RMK A01 T01751072  RH  018%=      5-min Rain = 0
KVA1 250105Z 07005KT 18/M07 A3005 RMK A01 T01751072  RH  018%=      5-min Rain = 0
KVA1 250106Z 08005KT 18/M07 A3005 RMK A01 T01751071  RH  018%=      5-min Rain = 0
KVA1 250107Z 08005KT 17/M07 A3005 RMK A01 T01741070  RH  018%=      5-min Rain = 0
KVA1 250108Z 08006KT 17/M07 A3005 RMK A01 T01731070  RH  018%=      5-min Rain = 0
KVA1 250109Z 08006KT 17/M07 A3005 RMK A01 T01711070  RH  019%=      5-min Rain = 0
KVA1 250110Z 08006KT 17/M07 A3005 RMK A01 T01701069  RH  019%=      5-min Rain = 0
KVA1 250111Z 08006KT 17/M07 A3005 RMK A01 T01691069  RH  019%=      5-min Rain = 0
KVA1 250112Z 09006KT 17/M07 A3005 RMK A01 T01681069  RH  019%=      5-min Rain = 0
KVA1 250113Z 09006KT 17/M07 A3005 RMK A01 T01671068  RH  019%=      5-min Rain = 0
KVA1 250114Z 09005KT 17/M07 A3005 RMK A01 T01661067  RH  020%=      5-min Rain = 0
KVA1 250115Z 09006KT 17/M07 A3005 RMK A01 T01651067  RH  020%=      5-min Rain = 0
KVA1 250116Z 09006KT 17/M07 A3005 RMK A01 T01651067  RH  020%=      5-min Rain = 0
KVA1 250117Z 09006KT 16/M07 A3005 RMK A01 T01641067  RH  020%=      5-min Rain = 0
KVA1 250118Z 10006KT 16/M07 A3005 RMK A01 T01641066  RH  020%=      5-min Rain = 0
KVA1 250119Z 10006KT 16/M07 A3005 RMK A01 T01631066  RH  020%=      5-min Rain = 0
KVA1 250120Z 10006KT 16/M07 A3005 RMK A01 T01621066  RH  020%=      5-min Rain = 0
KVA1 250121Z 10006KT 16/M07 A3005 RMK A01 T01621065  RH  020%=      5-min Rain = 0
KVA1 250122Z 10006KT 16/M07 A3005 RMK A01 T01621065  RH  021%=      5-min Rain = 0
KVA1 250123Z 09005KT 16/M06 A3005 RMK A01 T01621064  RH  021%=      5-min Rain = 0
KVA1 250124Z 09006KT 16/M06 A3005 RMK A01 T01611064  RH  021%=      5-min Rain = 0
KVA1 250125Z 09005KT 16/M06 A3005 RMK A01 T01601064  RH  021%=      5-min Rain = 0
KVA1 250126Z 10005KT 16/M06 A3005 RMK A01 T01591064  RH  021%=      5-min Rain = 0
KVA1 250127Z 10005KT 16/M06 A3005 RMK A01 T01581064  RH  021%=      5-min Rain = 0
KVA1 250128Z 10005KT 16/M06 A3005 RMK A01 T01581064  RH  021%=      5-min Rain = 0
KVA1 250129Z 09005KT 16/M06 A3005 RMK A01 T01571064  RH  021%=      5-min Rain = 0
KVA1 250130Z 09005KT 16/M06 A3005 RMK A01 T01561064  RH  021%=      5-min Rain = 0
KVA1 250131Z 09005KT 16/M06 A3005 RMK A01 T01551063  RH  022%=      5-min Rain = 0
KVA1 250132Z 09005KT 16/M06 A3005 RMK A01 T01551063  RH  022%=      5-min Rain = 0
KVA1 250133Z 09005KT 15/M06 A3005 RMK A01 T01541063  RH  022%=      5-min Rain = 0
KVA1 250134Z 09005KT 15/M06 A3005 RMK A01 T01531063  RH  022%=      5-min Rain = 0
KVA1 250135Z 09005KT 15/M06 A3005 RMK A01 T01531062  RH  022%=      5-min Rain = 0
KVA1 250136Z 10005KT 15/M06 A3005 RMK A01 T01521063  RH  022%=      5-min Rain = 0
KVA1 250137Z 10005KT 15/M06 A3005 RMK A01 T01511062  RH  022%=      5-min Rain = 0
KVA1 250138Z 10005KT 15/M06 A3005 RMK A01 T01501062  RH  023%=      5-min Rain = 0
KVA1 250139Z 10005KT 15/M06 A3005 RMK A01 T01491062  RH  023%=      5-min Rain = 0
KVA1 250140Z 10005KT 15/M06 A3005 RMK A01 T01491061  RH  023%=      5-min Rain = 0
KVA1 250141Z 09005KT 15/M06 A3005 RMK A01 T01481061  RH  023%=      5-min Rain = 0
KVA1 250142Z 09005KT 15/M06 A3006 RMK A01 T01481061  RH  023%=      5-min Rain = 0
KVA1 250143Z 09005KT 15/M06 A3006 RMK A01 T01481061  RH  023%=      5-min Rain = 0
KVA1 250144Z 10005KT 15/M06 A3006 RMK A01 T01481060  RH  023%=      5-min Rain = 0
KVA1 250145Z 09005KT 15/M06 A3006 RMK A01 T01471060  RH  023%=      5-min Rain = 0
KVA1 250146Z 10006KT 15/M06 A3006 RMK A01 T01471060  RH  023%=      5-min Rain = 0
KVA1 250147Z 10005KT 15/M06 A3006 RMK A01 T01461060  RH  024%=      5-min Rain = 0
KVA1 250148Z 10005KT 15/M06 A3006 RMK A01 T01461059  RH  024%=      5-min Rain = 0
KVA1 250149Z 10006KT 15/M06 A3006 RMK A01 T01461059  RH  024%=      5-min Rain = 0
KVA1 250150Z 10006KT 15/M06 A3006 RMK A01 T01461059  RH  024%=      5-min Rain = 0
KVA1 250151Z 10006KT 15/M06 A3006 RMK A01 T01451059  RH  024%=      5-min Rain = 0
KVA1 250152Z 10005KT 15/M06 A3006 RMK A01 T01451059  RH  024%=      5-min Rain = 0
KVA1 250153Z 10005KT 15/M06 A3006 RMK A01 T01451059  RH  024%=      5-min Rain = 0
KVA1 250154Z 10007KT 15/M06 A3006 RMK A01 T01451058  RH  024%=      5-min Rain = 0
KVA1 250155Z 10007KT 15/M06 A3006 RMK A01 T01451058  RH  024%=      5-min Rain = 0
KVA1 250156Z 10007KT 14/M06 A3006 RMK A01 T01441057  RH  024%=      5-min Rain = 0
KVA1 250157Z 10007KT 15/M06 A3006 RMK A01 T01451057  RH  024%=      5-min Rain = 0
KVA1 250158Z 09006KT 15/M06 A3006 RMK A01 T01461058  RH  024%=      5-min Rain = 0
KVA1 250159Z 09006KT 15/M06 A3006 RMK A01 T01471057  RH  024%=      5-min Rain = 0
KVA1 250200Z 10006KT 15/M06 A3006 RMK A01 T01481058  RH  024%=      5-min Rain = 0
KVA1 250201Z 09006KT 15/M06 A3006 RMK A01 T01481058  RH  024%=      5-min Rain = 0
KVA1 250202Z 09006KT 15/M06 A3006 RMK A01 T01481057  RH  024%=      5-min Rain = 0
KVA1 250203Z 09007KT 15/M06 A3006 RMK A01 T01461057  RH  024%=      5-min Rain = 0
KVA1 250204Z 09006KT 15/M06 A3006 RMK A01 T01451058  RH  024%=      5-min Rain = 0
KVA1 250205Z 08005KT 15/M06 A3006 RMK A01 T01451058  RH  024%=      5-min Rain = 0
KVA1 250206Z 08005KT 15/M06 A3006 RMK A01 T01451057  RH  024%=      5-min Rain = 0
KVA1 250207Z 08005KT 14/M06 A3006 RMK A01 T01441057  RH  024%=      5-min Rain = 0
KVA1 250208Z 08006KT 14/M06 A3006 RMK A01 T01431057  RH  025%=      5-min Rain = 0
KVA1 250209Z 08006KT 14/M06 A3006 RMK A01 T01421057  RH  025%=      5-min Rain = 0
KVA1 250210Z 09006KT 14/M06 A3006 RMK A01 T01411057  RH  025%=      5-min Rain = 0
KVA1 250211Z 08006KT 14/M06 A3006 RMK A01 T01411057  RH  025%=      5-min Rain = 0
KVA1 250212Z 08006KT 14/M06 A3006 RMK A01 T01401057  RH  025%=      5-min Rain = 0
KVA1 250213Z 09006KT 14/M06 A3006 RMK A01 T01401057  RH  025%=      5-min Rain = 0
KVA1 250214Z 09006KT 14/M06 A3006 RMK A01 T01411057  RH  025%=      5-min Rain = 0
KVA1 250215Z 09006KT 14/M06 A3006 RMK A01 T01411056  RH  025%=      5-min Rain = 0
KVA1 250216Z 10006KT 14/M06 A3006 RMK A01 T01411056  RH  025%=      5-min Rain = 0
KVA1 250217Z 10006KT 14/M06 A3006 RMK A01 T01411056  RH  025%=      5-min Rain = 0
KVA1 250218Z 10006KT 14/M06 A3006 RMK A01 T01411056  RH  025%=      5-min Rain = 0
KVA1 250219Z 10007KT 14/M06 A3006 RMK A01 T01411056  RH  025%=      5-min Rain = 0
KVA1 250220Z 10007KT 14/M06 A3006 RMK A01 T01411056  RH  025%=      5-min Rain = 0
KVA1 250221Z 10007KT 14/M06 A3006 RMK A01 T01411055  RH  025%=      5-min Rain = 0
KVA1 250222Z 10007KT 14/M06 A3006 RMK A01 T01401056  RH  025%=      5-min Rain = 0
KVA1 250223Z 10007KT 14/M06 A3006 RMK A01 T01401056  RH  025%=      5-min Rain = 0
KVA1 250224Z 10006KT 14/M06 A3006 RMK A01 T01401055  RH  025%=      5-min Rain = 0
KVA1 250225Z 09006KT 14/M06 A3006 RMK A01 T01401055  RH  025%=      5-min Rain = 0
KVA1 250226Z 09006KT 14/M06 A3006 RMK A01 T01401055  RH  025%=      5-min Rain = 0
KVA1 250227Z 10005KT 14/M05 A3006 RMK A01 T01401054  RH  026%=      5-min Rain = 0
KVA1 250228Z 10005KT 14/M05 A3006 RMK A01 T01401054  RH  026%=      5-min Rain = 0
KVA1 250229Z 09005KT 14/M05 A3006 RMK A01 T01401054  RH  026%=      5-min Rain = 0
KVA1 250230Z 09006KT 14/M05 A3006 RMK A01 T01401054  RH  026%=      5-min Rain = 0
KVA1 250231Z 08006KT 14/M05 A3007 RMK A01 T01391054  RH  026%=      5-min Rain = 0
KVA1 250232Z 09006KT 14/M05 A3007 RMK A01 T01391054  RH  026%=      5-min Rain = 0
KVA1 250233Z 09006KT 14/M05 A3007 RMK A01 T01391054  RH  026%=      5-min Rain = 0
KVA1 250234Z 08006KT 14/M05 A3007 RMK A01 T01391054  RH  026%=      5-min Rain = 0
KVA1 250235Z 08006KT 14/M05 A3007 RMK A01 T01391053  RH  026%=      5-min Rain = 0
KVA1 250236Z 08006KT 14/M05 A3007 RMK A01 T01381053  RH  026%=      5-min Rain = 0
KVA1 250237Z 07006KT 14/M05 A3007 RMK A01 T01371053  RH  026%=      5-min Rain = 0
KVA1 250238Z 06005KT 14/M05 A3007 RMK A01 T01371053  RH  026%=      5-min Rain = 0
KVA1 250239Z 05005KT 14/M05 A3007 RMK A01 T01371053  RH  026%=      5-min Rain = 0
KVA1 250240Z 02004KT 14/M05 A3007 RMK A01 T01381052  RH  026%=      5-min Rain = 0
KVA1 250241Z 35004KT 14/M05 A3007 RMK A01 T01371052  RH  026%=      5-min Rain = 0
KVA1 250242Z 36004KT 14/M05 A3007 RMK A01 T01351053  RH  027%=      5-min Rain = 0
KVA1 250243Z 00004KT 13/M05 A3007 RMK A01 T01331054  RH  027%=      5-min Rain = 0
KVA1 250244Z 00004KT 13/M05 A3007 RMK A01 T01311054  RH  027%=      5-min Rain = 0
KVA1 250245Z 01004KT 13/M05 A3007 RMK A01 T01301054  RH  027%=      5-min Rain = 0
KVA1 250246Z 02005KT 13/M05 A3007 RMK A01 T01291054  RH  028%=      5-min Rain = 0
KVA1 250247Z 03005KT 13/M05 A3007 RMK A01 T01281053  RH  028%=      5-min Rain = 0
KVA1 250248Z 02006KT 13/M05 A3008 RMK A01 T01281053  RH  028%=      5-min Rain = 0
KVA1 250249Z 04007KT 13/M05 A3008 RMK A01 T01281053  RH  028%=      5-min Rain = 0
KVA1 250250Z 06006KT 13/M05 A3007 RMK A01 T01281053  RH  028%=      5-min Rain = 0
KVA1 250251Z 07006KT 13/M05 A3007 RMK A01 T01291053  RH  028%=      5-min Rain = 0
KVA1 250252Z 08006KT 13/M05 A3007 RMK A01 T01311052  RH  028%=      5-min Rain = 0
KVA1 250253Z 08004KT 13/M05 A3008 RMK A01 T01321053  RH  027%=      5-min Rain = 0
KVA1 250254Z 08004KT 13/M05 A3008 RMK A01 T01321053  RH  027%=      5-min Rain = 0
KVA1 250255Z 07004KT 13/M05 A3008 RMK A01 T01331052  RH  027%=      5-min Rain = 0
KVA1 250256Z 04004KT 13/M05 A3008 RMK A01 T01341052  RH  027%=      5-min Rain = 0
KVA1 250257Z 03003KT 13/M05 A3008 RMK A01 T01341052  RH  027%=      5-min Rain = 0
KVA1 250258Z 02004KT 13/M05 A3008 RMK A01 T01331052  RH  027%=      5-min Rain = 0
KVA1 250259Z 03004KT 13/M05 A3008 RMK A01 T01301052  RH  028%=      5-min Rain = 0
KVA1 250300Z 05004KT 13/M05 A3008 RMK A01 T01281052  RH  028%=      5-min Rain = 0
KVA1 250301Z 08003KT 13/M05 A3008 RMK A01 T01271052  RH  028%=      5-min Rain = 0
KVA1 250302Z 08003KT 13/M05 A3008 RMK A01 T01281052  RH  028%=      5-min Rain = 0
KVA1 250303Z 04003KT 13/M05 A3008 RMK A01 T01281052  RH  028%=      5-min Rain = 0
KVA1 250304Z 01005KT 13/M05 A3008 RMK A01 T01271051  RH  028%=      5-min Rain = 0
KVA1 250305Z 01005KT 13/M05 A3008 RMK A01 T01251052  RH  029%=      5-min Rain = 0
KVA1 250306Z 03004KT 13/M05 A3008 RMK A01 T01251052  RH  029%=      5-min Rain = 0
KVA1 250307Z 03004KT 12/M05 A3008 RMK A01 T01241051  RH  029%=      5-min Rain = 0
KVA1 250308Z 03005KT 12/M05 A3008 RMK A01 T01241051  RH  029%=      5-min Rain = 0
KVA1 250309Z 02005KT 12/M05 A3008 RMK A01 T01231051  RH  029%=      5-min Rain = 0
KVA1 250310Z 01005KT 12/M05 A3008 RMK A01 T01221051  RH  029%=      5-min Rain = 0
KVA1 250311Z 01004KT 12/M05 A3008 RMK A01 T01211051  RH  030%=      5-min Rain = 0
KVA1 250312Z 02004KT 12/M05 A3008 RMK A01 T01211052  RH  030%=      5-min Rain = 0
KVA1 250313Z 03004KT 12/M05 A3008 RMK A01 T01211051  RH  030%=      5-min Rain = 0
KVA1 250314Z 04004KT 12/M05 A3008 RMK A01 T01231051  RH  029%=      5-min Rain = 0
KVA1 250315Z 04005KT 12/M05 A3008 RMK A01 T01231051  RH  029%=      5-min Rain = 0
KVA1 250316Z 04004KT 12/M05 A3008 RMK A01 T01241051  RH  029%=      5-min Rain = 0
KVA1 250317Z 05003KT 13/M05 A3008 RMK A01 T01251051  RH  029%=      5-min Rain = 0
KVA1 250318Z 04003KT 13/M05 A3008 RMK A01 T01251051  RH  029%=      5-min Rain = 0
KVA1 250319Z 05004KT 12/M05 A3008 RMK A01 T01241051  RH  029%=      5-min Rain = 0
KVA1 250320Z 05004KT 12/M05 A3008 RMK A01 T01241051  RH  029%=      5-min Rain = 0
KVA1 250321Z 04004KT 12/M05 A3008 RMK A01 T01241051  RH  029%=      5-min Rain = 0
KVA1 250322Z 05003KT 12/M05 A3008 RMK A01 T01241051  RH  029%=      5-min Rain = 0
KVA1 250323Z 05003KT 12/M05 A3008 RMK A01 T01231051  RH  029%=      5-min Rain = 0
KVA1 250324Z 06003KT 12/M05 A3008 RMK A01 T01211051  RH  030%=      5-min Rain = 0
KVA1 250325Z 07003KT 12/M05 A3008 RMK A01 T01211051  RH  030%=      5-min Rain = 0
KVA1 250326Z 07003KT 12/M05 A3008 RMK A01 T01201052  RH  030%=      5-min Rain = 0
KVA1 250327Z 08003KT 12/M05 A3008 RMK A01 T01191052  RH  030%=      5-min Rain = 0
KVA1 250328Z 07002KT 12/M05 A3008 RMK A01 T01191051  RH  030%=      5-min Rain = 0
KVA1 250329Z 07002KT 12/M05 A3008 RMK A01 T01181052  RH  030%=      5-min Rain = 0
KVA1 250330Z 07002KT 12/M05 A3008 RMK A01 T01191052  RH  030%=      5-min Rain = 0
KVA1 250331Z 08002KT 12/M05 A3008 RMK A01 T01191052  RH  030%=      5-min Rain = 0
KVA1 250332Z 08003KT 12/M05 A3008 RMK A01 T01191052  RH  030%=      5-min Rain = 0
KVA1 250333Z 08003KT 12/M05 A3008 RMK A01 T01191052  RH  030%=      5-min Rain = 0
KVA1 250334Z 08002KT 12/M05 A3008 RMK A01 T01191052  RH  030%=      5-min Rain = 0
KVA1 250335Z 07002KT 12/M05 A3008 RMK A01 T01191052  RH  030%=      5-min Rain = 0
KVA1 250336Z 06002KT 12/M05 A3008 RMK A01 T01191052  RH  030%=      5-min Rain = 0
KVA1 250337Z 05002KT 12/M05 A3008 RMK A01 T01191052  RH  030%=      5-min Rain = 0
KVA1 250338Z 04002KT 12/M05 A3008 RMK A01 T01181052  RH  030%=      5-min Rain = 0
KVA1 250339Z 02001KT 12/M05 A3008 RMK A01 T01151053  RH  030%=      5-min Rain = 0
KVA1 250340Z 00002KT 11/M05 A3008 RMK A01 T01121054  RH  031%=      5-min Rain = 0
KVA1 250341Z 01001KT 11/M05 A3008 RMK A01 T01091054  RH  031%=      5-min Rain = 0
KVA1 250342Z 01001KT 11/M05 A3008 RMK A01 T01061054  RH  032%=      5-min Rain = 0
KVA1 250343Z 01001KT 11/M05 A3008 RMK A01 T01051054  RH  032%=      5-min Rain = 0
KVA1 250344Z 01001KT 10/M05 A3008 RMK A01 T01041053  RH  033%=      5-min Rain = 0
KVA1 250345Z 02001KT 10/M05 A3008 RMK A01 T01041053  RH  033%=      5-min Rain = 0
KVA1 250346Z 06000KT 11/M05 A3008 RMK A01 T01051052  RH  033%=      5-min Rain = 0
KVA1 250347Z 09000KT 11/M05 A3008 RMK A01 T01051052  RH  033%=      5-min Rain = 0
KVA1 250348Z 10001KT 11/M05 A3008 RMK A01 T01051052  RH  033%=      5-min Rain = 0
KVA1 250349Z 08001KT 11/M05 A3009 RMK A01 T01051052  RH  033%=      5-min Rain = 0
KVA1 250350Z 09001KT 11/M05 A3008 RMK A01 T01061052  RH  033%=      5-min Rain = 0
KVA1 250351Z 07000KT 11/M05 A3008 RMK A01 T01091051  RH  032%=      5-min Rain = 0
KVA1 250352Z 05001KT 11/M05 A3008 RMK A01 T01111051  RH  032%=      5-min Rain = 0
KVA1 250353Z 05001KT 11/M05 A3008 RMK A01 T01091052  RH  032%=      5-min Rain = 0
KVA1 250354Z 04001KT 11/M05 A3008 RMK A01 T01091052  RH  032%=      5-min Rain = 0
KVA1 250355Z 04001KT 11/M05 A3008 RMK A01 T01101052  RH  032%=      5-min Rain = 0
KVA1 250356Z 05001KT 11/M05 A3009 RMK A01 T01111052  RH  032%=      5-min Rain = 0
KVA1 250357Z 03001KT 11/M05 A3009 RMK A01 T01081053  RH  032%=      5-min Rain = 0
KVA1 250358Z 02001KT 11/M05 A3009 RMK A01 T01071053  RH  032%=      5-min Rain = 0
KVA1 250359Z 35001KT 11/M05 A3009 RMK A01 T01081052  RH  032%=      5-min Rain = 0
KVA1 250400Z 34002KT 11/M05 A3009 RMK A01 T01061053  RH  032%=      5-min Rain = 0
KVA1 250401Z 35002KT 10/M05 A3009 RMK A01 T01021054  RH  033%=      5-min Rain = 0
KVA1 250402Z 35003KT 10/M05 A3009 RMK A01 T00991053  RH  034%=      5-min Rain = 0
KVA1 250403Z 36003KT 10/M05 A3009 RMK A01 T00971053  RH  034%=      5-min Rain = 0
KVA1 250404Z 36002KT 10/M05 A3009 RMK A01 T00961052  RH  035%=      5-min Rain = 0
KVA1 250405Z 35003KT 10/M05 A3009 RMK A01 T00951051  RH  035%=      5-min Rain = 0
KVA1 250406Z 36002KT 10/M05 A3009 RMK A01 T00951052  RH  035%=      5-min Rain = 0
KVA1 250407Z 35002KT 10/M05 A3009 RMK A01 T00961051  RH  035%=      5-min Rain = 0
KVA1 250408Z 35002KT 10/M05 A3009 RMK A01 T00961051  RH  035%=      5-min Rain = 0
KVA1 250409Z 35002KT 10/M05 A3009 RMK A01 T00951051  RH  035%=      5-min Rain = 0
KVA1 250410Z 35002KT 10/M05 A3009 RMK A01 T00951052  RH  035%=      5-min Rain = 0
KVA1 250411Z 35002KT 09/M05 A3009 RMK A01 T00941052  RH  035%=      5-min Rain = 0
KVA1 250412Z 34003KT 09/M05 A3009 RMK A01 T00941052  RH  035%=      5-min Rain = 0
KVA1 250413Z 34003KT 09/M05 A3009 RMK A01 T00921053  RH  036%=      5-min Rain = 0
KVA1 250414Z 35003KT 09/M05 A3009 RMK A01 T00901052  RH  036%=      5-min Rain = 0
KVA1 250415Z 36003KT 09/M05 A3009 RMK A01 T00901052  RH  036%=      5-min Rain = 0
KVA1 250416Z 36003KT 09/M05 A3009 RMK A01 T00891052  RH  036%=      5-min Rain = 0
KVA1 250417Z 00003KT 09/M05 A3009 RMK A01 T00891051  RH  037%=      5-min Rain = 0
KVA1 250418Z 35003KT 09/M05 A3009 RMK A01 T00891051  RH  037%=      5-min Rain = 0
KVA1 250419Z 34003KT 09/M05 A3009 RMK A01 T00891052  RH  036%=      5-min Rain = 0
KVA1 250420Z 34003KT 09/M05 A3009 RMK A01 T00891052  RH  036%=      5-min Rain = 0
KVA1 250421Z 34003KT 09/M05 A3009 RMK A01 T00901051  RH  036%=      5-min Rain = 0
KVA1 250422Z 34003KT 09/M05 A3009 RMK A01 T00891052  RH  037%=      5-min Rain = 0
KVA1 250423Z 34002KT 09/M05 A3009 RMK A01 T00881052  RH  037%=      5-min Rain = 0
KVA1 250424Z 35002KT 09/M05 A3009 RMK A01 T00871052  RH  037%=      5-min Rain = 0
KVA1 250425Z 35002KT 09/M05 A3009 RMK A01 T00871051  RH  037%=      5-min Rain = 0
KVA1 250426Z 35003KT 09/M05 A3009 RMK A01 T00861051  RH  038%=      5-min Rain = 0
KVA1 250427Z 35003KT 09/M05 A3009 RMK A01 T00851051  RH  038%=      5-min Rain = 0
KVA1 250428Z 34003KT 08/M05 A3009 RMK A01 T00841052  RH  038%=      5-min Rain = 0
KVA1 250429Z 35003KT 08/M05 A3009 RMK A01 T00831052  RH  038%=      5-min Rain = 0
KVA1 250430Z 35003KT 08/M05 A3009 RMK A01 T00811052  RH  038%=      5-min Rain = 0
KVA1 250431Z 34003KT 08/M05 A301 RMK A01 T00801052  RH  039%=      5-min Rain = 0
KVA1 250432Z 34003KT 08/M05 A301 RMK A01 T00791051  RH  039%=      5-min Rain = 0
KVA1 250433Z 34003KT 08/M05 A301 RMK A01 T00781052  RH  039%=      5-min Rain = 0
KVA1 250434Z 34003KT 08/M05 A301 RMK A01 T00781051  RH  040%=      5-min Rain = 0
KVA1 250435Z 34003KT 08/M05 A301 RMK A01 T00771051  RH  040%=      5-min Rain = 0
KVA1 250436Z 34003KT 08/M05 A301 RMK A01 T00761051  RH  040%=      5-min Rain = 0
KVA1 250437Z 33003KT 08/M05 A301 RMK A01 T00751051  RH  040%=      5-min Rain = 0
KVA1 250438Z 33002KT 07/M05 A301 RMK A01 T00741051  RH  040%=      5-min Rain = 0
KVA1 250439Z 33002KT 07/M05 A301 RMK A01 T00741052  RH  041%=      5-min Rain = 0
KVA1 250440Z 33002KT 07/M05 A301 RMK A01 T00731052  RH  041%=      5-min Rain = 0
KVA1 250441Z 34002KT 07/M05 A301 RMK A01 T00731052  RH  041%=      5-min Rain = 0
KVA1 250442Z 35001KT 07/M05 A301 RMK A01 T00731052  RH  041%=      5-min Rain = 0
KVA1 250443Z 35002KT 07/M05 A301 RMK A01 T00731052  RH  041%=      5-min Rain = 0
KVA1 250444Z 34002KT 07/M05 A301 RMK A01 T00731052  RH  041%=      5-min Rain = 0
KVA1 250445Z 33002KT 07/M05 A301 RMK A01 T00731052  RH  041%=      5-min Rain = 0
KVA1 250446Z 33002KT 07/M05 A301 RMK A01 T00731052  RH  041%=      5-min Rain = 0
KVA1 250447Z 33002KT 07/M05 A301 RMK A01 T00731052  RH  041%=      5-min Rain = 0
KVA1 250448Z 32002KT 07/M05 A301 RMK A01 T00721053  RH  041%=      5-min Rain = 0
KVA1 250449Z 32002KT 07/M05 A301 RMK A01 T00711053  RH  041%=      5-min Rain = 0
KVA1 250450Z 32002KT 07/M05 A301 RMK A01 T00711053  RH  041%=      5-min Rain = 0
KVA1 250451Z 32002KT 07/M05 A301 RMK A01 T00711053  RH  041%=      5-min Rain = 0
KVA1 250452Z 33002KT 07/M05 A301 RMK A01 T00711053  RH  041%=      5-min Rain = 0
KVA1 250453Z 33002KT 07/M05 A301 RMK A01 T00711053  RH  041%=      5-min Rain = 0
KVA1 250454Z 34001KT 07/M05 A301 RMK A01 T00711053  RH  041%=      5-min Rain = 0
KVA1 250455Z 35001KT 07/M05 A301 RMK A01 T00711052  RH  041%=      5-min Rain = 0
KVA1 250456Z 02001KT 07/M05 A301 RMK A01 T00711053  RH  041%=      5-min Rain = 0
KVA1 250457Z 01001KT 07/M05 A301 RMK A01 T00711053  RH  041%=      5-min Rain = 0
KVA1 250458Z 04001KT 07/M05 A301 RMK A01 T00711052  RH  041%=      5-min Rain = 0
KVA1 250459Z 05002KT 07/M05 A301 RMK A01 T00711052  RH  041%=      5-min Rain = 0
KVA1 250500Z 05002KT 07/M05 A301 RMK A01 T00711052  RH  041%=      5-min Rain = 0
KVA1 250501Z 05001KT 07/M05 A301 RMK A01 T00711052  RH  041%=      5-min Rain = 0
KVA1 250502Z 06002KT 07/M05 A301 RMK A01 T00701052  RH  041%=      5-min Rain = 0
KVA1 250503Z 06002KT 07/M05 A301 RMK A01 T00701052  RH  042%=      5-min Rain = 0
KVA1 250504Z 06002KT 07/M05 A301 RMK A01 T00701052  RH  042%=      5-min Rain = 0
KVA1 250505Z 07002KT 07/M05 A301 RMK A01 T00691052  RH  042%=      5-min Rain = 0
KVA1 250506Z 08002KT 07/M05 A301 RMK A01 T00701053  RH  041%=      5-min Rain = 0
KVA1 250507Z 11002KT 07/M05 A301 RMK A01 T00721051  RH  041%=      5-min Rain = 0
KVA1 250508Z 12002KT 07/M05 A301 RMK A01 T00721050  RH  041%=      5-min Rain = 0
KVA1 250509Z 12002KT 07/M05 A301 RMK A01 T00701051  RH  042%=      5-min Rain = 0
KVA1 250510Z 12003KT 07/M05 A301 RMK A01 T00701050  RH  042%=      5-min Rain = 0
KVA1 250511Z 12002KT 07/M05 A301 RMK A01 T00691049  RH  043%=      5-min Rain = 0
KVA1 250512Z 14002KT 07/M05 A301 RMK A01 T00681049  RH  043%=      5-min Rain = 0
KVA1 250513Z 15002KT 07/M05 A301 RMK A01 T00671049  RH  043%=      5-min Rain = 0
KVA1 250514Z 15002KT 07/M05 A301 RMK A01 T00671049  RH  043%=      5-min Rain = 0
KVA1 250515Z 16002KT 07/M05 A301 RMK A01 T00671049  RH  043%=      5-min Rain = 0
KVA1 250516Z 15002KT 07/M05 A301 RMK A01 T00681049  RH  043%=      5-min Rain = 0
KVA1 250517Z 15003KT 07/M05 A301 RMK A01 T00691049  RH  043%=      5-min Rain = 0
KVA1 250518Z 15003KT 07/M05 A301 RMK A01 T00711049  RH  042%=      5-min Rain = 0
KVA1 250519Z 16003KT 07/M05 A301 RMK A01 T00731049  RH  041%=      5-min Rain = 0
KVA1 250520Z 17003KT 07/M05 A301 RMK A01 T00741049  RH  041%=      5-min Rain = 0
KVA1 250521Z 18003KT 07/M05 A301 RMK A01 T00741049  RH  041%=      5-min Rain = 0
KVA1 250522Z 17002KT 07/M05 A301 RMK A01 T00741049  RH  041%=      5-min Rain = 0
KVA1 250523Z 18002KT 07/M05 A301 RMK A01 T00731050  RH  041%=      5-min Rain = 0
KVA1 250524Z 18002KT 07/M05 A301 RMK A01 T00721051  RH  041%=      5-min Rain = 0
KVA1 250525Z 18002KT 07/M05 A301 RMK A01 T00691051  RH  042%=      5-min Rain = 0
KVA1 250526Z 18001KT 07/M05 A301 RMK A01 T00691050  RH  042%=      5-min Rain = 0
KVA1 250527Z 19002KT 07/M05 A301 RMK A01 T00691049  RH  042%=      5-min Rain = 0
KVA1 250528Z 19002KT 07/M05 A301 RMK A01 T00701049  RH  042%=      5-min Rain = 0
KVA1 250529Z 20003KT 07/M05 A301 RMK A01 T00701049  RH  042%=      5-min Rain = 0
KVA1 250530Z 20005KT 07/M05 A301 RMK A01 T00691049  RH  043%=      5-min Rain = 0
KVA1 250531Z 20005KT 07/M05 A3011 RMK A01 T00681048  RH  043%=      5-min Rain = 0
KVA1 250532Z 20006KT 07/M05 A3011 RMK A01 T00691046  RH  044%=      5-min Rain = 0
KVA1 250533Z 19006KT 07/M05 A3011 RMK A01 T00731045  RH  043%=      5-min Rain = 0
KVA1 250534Z 19007KT 08/M05 A3011 RMK A01 T00771045  RH  041%=      5-min Rain = 0
KVA1 250535Z 20007KT 08/M05 A3011 RMK A01 T00811046  RH  040%=      5-min Rain = 0
KVA1 250536Z 21006KT 08/M05 A3011 RMK A01 T00831046  RH  040%=      5-min Rain = 0
KVA1 250537Z 21006KT 08/M05 A3011 RMK A01 T00841046  RH  039%=      5-min Rain = 0
KVA1 250538Z 21006KT 09/M05 A3011 RMK A01 T00851047  RH  039%=      5-min Rain = 0
KVA1 250539Z 20006KT 09/M05 A3011 RMK A01 T00871047  RH  039%=      5-min Rain = 0
KVA1 250540Z 21005KT 09/M05 A3011 RMK A01 T00871046  RH  038%=      5-min Rain = 0
KVA1 250541Z 20005KT 09/M05 A3011 RMK A01 T00881046  RH  038%=      5-min Rain = 0
KVA1 250542Z 20006KT 09/M05 A3011 RMK A01 T00901046  RH  038%=      5-min Rain = 0
KVA1 250543Z 20007KT 09/M05 A3011 RMK A01 T00911047  RH  037%=      5-min Rain = 0
KVA1 250544Z 20007KT 09/M05 A3011 RMK A01 T00931048  RH  037%=      5-min Rain = 0
KVA1 250545Z 20006KT 09/M05 A3011 RMK A01 T00941048  RH  036%=      5-min Rain = 0
KVA1 250546Z 21005KT 09/M05 A3011 RMK A01 T00941047  RH  036%=      5-min Rain = 0
KVA1 250547Z 21005KT 09/M05 A3011 RMK A01 T00941047  RH  036%=      5-min Rain = 0
KVA1 250548Z 21005KT 09/M05 A3011 RMK A01 T00941048  RH  036%=      5-min Rain = 0
KVA1 250549Z 21004KT 10/M05 A3011 RMK A01 T00951048  RH  036%=      5-min Rain = 0
KVA1 250550Z 21004KT 10/M05 A3011 RMK A01 T00951048  RH  036%=      5-min Rain = 0
KVA1 250551Z 21004KT 10/M05 A3011 RMK A01 T00951048  RH  036%=      5-min Rain = 0
KVA1 250552Z 21003KT 10/M05 A3011 RMK A01 T00961048  RH  036%=      5-min Rain = 0
KVA1 250553Z 22003KT 10/M05 A3011 RMK A01 T00961048  RH  036%=      5-min Rain = 0
KVA1 250554Z 22003KT 10/M05 A3011 RMK A01 T00961048  RH  036%=      5-min Rain = 0
KVA1 250555Z 23003KT 10/M05 A3011 RMK A01 T00961048  RH  036%=      5-min Rain = 0
KVA1 250556Z 23004KT 10/M05 A3011 RMK A01 T00961048  RH  036%=      5-min Rain = 0
KVA1 250557Z 23004KT 10/M05 A3011 RMK A01 T00951048  RH  036%=      5-min Rain = 0
KVA1 250558Z 23004KT 10/M05 A3011 RMK A01 T00951048  RH  036%=      5-min Rain = 0
KVA1 250559Z 23003KT 09/M05 A3011 RMK A01 T00941048  RH  036%=      5-min Rain = 0

Page generated in 0.0732 seconds.